<?xml version="1.0" encoding="UTF-8" standalone="no" ?>
<gpx xmlns="http://www.topografix.com/GPX/1/1" xmlns:xsi="http://www.w3.org/2001/XMLSchema-instance" xsi:schemaLocation="http://www.topografix.com/GPX/1/1 http://www.topografix.com/GPX/1/1/gpx.xsd" version="1.1" creator="VisuGPX - https://www.visugpx.com">
  <metadata>
    <name>pont des chèvres - Ranc de Banes</name>
    <desc><![CDATA[2016-03 - pont des chèvres - jumeaux de Sumène - Ranc de Banes

[b]album[/b] : [url]https://goo.gl/photos/DYtoTCZicttCJ2u38[/url]
[img]https://4.bp.blogspot.com/-4PWtejMqHDc/WNFLjcJSAbI/AAAAAAAAQ8o/YJh-MXA1d701M5-nYi_JAPOHAZL3uh8YwCLcB/s1600/2016-03_Sumene_i.JPG[/img]
[b]Idées de randonnées dans la même région[/b]
Parcours : [url]https://www.visugpx.com/membres/24856/montagne/cevennes/[/url]
Photos : [url]https://jcvertygo.blogspot.com/p/cevennes-meridionales.html[/url]]]></desc>
  </metadata>
  <trk>
    <name><![CDATA[pont des chèvres - Ranc de Banes_1]]></name>
    <trkseg>
      <trkpt lat="43.95207" lon="3.70913">
        <ele>153.6</ele>
        <time>2016-03-06T11:52:55Z</time>
      </trkpt>
      <trkpt lat="43.95227" lon="3.70958">
        <ele>153.73176491285</ele>
        <time>2016-03-06T11:53:54Z</time>
      </trkpt>
      <trkpt lat="43.95227" lon="3.70959">
        <ele>153.73176491285</ele>
        <time>2016-03-06T11:53:55Z</time>
      </trkpt>
      <trkpt lat="43.95236" lon="3.70964">
        <ele>154.55185858147</ele>
        <time>2016-03-06T11:54:04Z</time>
      </trkpt>
      <trkpt lat="43.95242" lon="3.70964">
        <ele>154.55185858147</ele>
        <time>2016-03-06T11:54:12Z</time>
      </trkpt>
      <trkpt lat="43.95423" lon="3.70953">
        <ele>162.68875178315</ele>
        <time>2016-03-06T11:56:56Z</time>
      </trkpt>
      <trkpt lat="43.9546" lon="3.70916">
        <ele>168.04401017342</ele>
        <time>2016-03-06T11:57:44Z</time>
      </trkpt>
      <trkpt lat="43.95465" lon="3.70913">
        <ele>168.04401017342</ele>
        <time>2016-03-06T11:57:46Z</time>
      </trkpt>
      <trkpt lat="43.95481" lon="3.709">
        <ele>171.85519228139</ele>
        <time>2016-03-06T11:58:04Z</time>
      </trkpt>
      <trkpt lat="43.95482" lon="3.70899">
        <ele>171.85519228139</ele>
        <time>2016-03-06T11:58:05Z</time>
      </trkpt>
      <trkpt lat="43.95487" lon="3.70895">
        <ele>171.85519228139</ele>
        <time>2016-03-06T11:58:10Z</time>
      </trkpt>
      <trkpt lat="43.95498" lon="3.70875">
        <ele>174.95740846497</ele>
        <time>2016-03-06T11:58:25Z</time>
      </trkpt>
      <trkpt lat="43.9551" lon="3.70859">
        <ele>177.68209483903</ele>
        <time>2016-03-06T11:58:43Z</time>
      </trkpt>
      <trkpt lat="43.95511" lon="3.70857">
        <ele>177.68209483903</ele>
        <time>2016-03-06T11:58:49Z</time>
      </trkpt>
      <trkpt lat="43.95537" lon="3.70833">
        <ele>180.58061038548</ele>
        <time>2016-03-06T11:59:07Z</time>
      </trkpt>
      <trkpt lat="43.95578" lon="3.70787">
        <ele>184.73844054361</ele>
        <time>2016-03-06T12:00:05Z</time>
      </trkpt>
      <trkpt lat="43.95701" lon="3.7074">
        <ele>191.91101224938</ele>
        <time>2016-03-06T12:02:10Z</time>
      </trkpt>
      <trkpt lat="43.95706" lon="3.70739">
        <ele>191.91101224938</ele>
        <time>2016-03-06T12:02:15Z</time>
      </trkpt>
      <trkpt lat="43.95746" lon="3.70733">
        <ele>198.56484191789</ele>
        <time>2016-03-06T12:03:00Z</time>
      </trkpt>
      <trkpt lat="43.95756" lon="3.70731">
        <ele>204.36192683182</ele>
        <time>2016-03-06T12:03:00Z</time>
      </trkpt>
      <trkpt lat="43.95783" lon="3.70729">
        <ele>209.29745811932</ele>
        <time>2016-03-06T12:03:31Z</time>
      </trkpt>
      <trkpt lat="43.95791" lon="3.70728">
        <ele>209.29745811932</ele>
        <time>2016-03-06T12:03:31Z</time>
      </trkpt>
      <trkpt lat="43.95801" lon="3.70725">
        <ele>213.57501682719</ele>
        <time>2016-03-06T12:03:48Z</time>
      </trkpt>
      <trkpt lat="43.95829" lon="3.70712">
        <ele>217.47567055099</ele>
        <time>2016-03-06T12:04:08Z</time>
      </trkpt>
      <trkpt lat="43.9583" lon="3.70709">
        <ele>217.47567055099</ele>
        <time>2016-03-06T12:04:08Z</time>
      </trkpt>
      <trkpt lat="43.95842" lon="3.70633">
        <ele>221.01455228667</ele>
        <time>2016-03-06T12:05:24Z</time>
      </trkpt>
      <trkpt lat="43.95851" lon="3.70625">
        <ele>223.99980422298</ele>
        <time>2016-03-06T12:05:26Z</time>
      </trkpt>
      <trkpt lat="43.95886" lon="3.70631">
        <ele>226.68887437645</ele>
        <time>2016-03-06T12:05:52Z</time>
      </trkpt>
      <trkpt lat="43.95902" lon="3.70624">
        <ele>229.31146433486</ele>
        <time>2016-03-06T12:06:10Z</time>
      </trkpt>
      <trkpt lat="43.95931" lon="3.70539">
        <ele>231.59764396432</ele>
        <time>2016-03-06T12:07:43Z</time>
      </trkpt>
      <trkpt lat="43.95945" lon="3.70542">
        <ele>233.48307689019</ele>
        <time>2016-03-06T12:07:43Z</time>
      </trkpt>
      <trkpt lat="43.95974" lon="3.70534">
        <ele>234.94295564598</ele>
        <time>2016-03-06T12:08:16Z</time>
      </trkpt>
      <trkpt lat="43.95981" lon="3.70526">
        <ele>236.06052106042</ele>
        <time>2016-03-06T12:08:16Z</time>
      </trkpt>
      <trkpt lat="43.9604" lon="3.7039">
        <ele>238.384451764</ele>
        <time>2016-03-06T12:10:10Z</time>
      </trkpt>
      <trkpt lat="43.9604" lon="3.70389">
        <ele>238.384451764</ele>
        <time>2016-03-06T12:10:17Z</time>
      </trkpt>
      <trkpt lat="43.96062" lon="3.70405">
        <ele>241.30345812324</ele>
        <time>2016-03-06T12:11:14Z</time>
      </trkpt>
      <trkpt lat="43.9613" lon="3.70434">
        <ele>244.06366978195</ele>
        <time>2016-03-06T12:12:18Z</time>
      </trkpt>
      <trkpt lat="43.96168" lon="3.70437">
        <ele>246.68088184837</ele>
        <time>2016-03-06T12:12:42Z</time>
      </trkpt>
      <trkpt lat="43.96171" lon="3.70437">
        <ele>246.68088184837</ele>
        <time>2016-03-06T12:12:45Z</time>
      </trkpt>
      <trkpt lat="43.96178" lon="3.70439">
        <ele>248.95681479013</ele>
        <time>2016-03-06T12:12:50Z</time>
      </trkpt>
      <trkpt lat="43.9619" lon="3.70435">
        <ele>251.02048557215</ele>
        <time>2016-03-06T12:13:00Z</time>
      </trkpt>
      <trkpt lat="43.96196" lon="3.70432">
        <ele>251.02048557215</ele>
        <time>2016-03-06T12:13:05Z</time>
      </trkpt>
      <trkpt lat="43.96206" lon="3.70425">
        <ele>252.8619315314</ele>
        <time>2016-03-06T12:13:15Z</time>
      </trkpt>
      <trkpt lat="43.96212" lon="3.70422">
        <ele>252.8619315314</ele>
        <time>2016-03-06T12:13:20Z</time>
      </trkpt>
      <trkpt lat="43.96216" lon="3.70411">
        <ele>254.48501863998</ele>
        <time>2016-03-06T12:13:30Z</time>
      </trkpt>
      <trkpt lat="43.96216" lon="3.70412">
        <ele>254.48501863998</ele>
        <time>2016-03-06T12:13:35Z</time>
      </trkpt>
      <trkpt lat="43.96203" lon="3.70418">
        <ele>255.86477629468</ele>
        <time>2016-03-06T12:13:43Z</time>
      </trkpt>
      <trkpt lat="43.96202" lon="3.70418">
        <ele>255.86477629468</ele>
        <time>2016-03-06T12:13:51Z</time>
      </trkpt>
      <trkpt lat="43.96148" lon="3.70409">
        <ele>257.3384384597</ele>
        <time>2016-03-06T12:14:35Z</time>
      </trkpt>
      <trkpt lat="43.96142" lon="3.70407">
        <ele>257.3384384597</ele>
        <time>2016-03-06T12:14:40Z</time>
      </trkpt>
      <trkpt lat="43.96129" lon="3.70401">
        <ele>258.6083420068</ele>
        <time>2016-03-06T12:14:50Z</time>
      </trkpt>
      <trkpt lat="43.96124" lon="3.70399">
        <ele>258.6083420068</ele>
        <time>2016-03-06T12:14:55Z</time>
      </trkpt>
      <trkpt lat="43.96029" lon="3.7033">
        <ele>260.23357093232</ele>
        <time>2016-03-06T12:16:30Z</time>
      </trkpt>
      <trkpt lat="43.96026" lon="3.70324">
        <ele>260.23357093232</ele>
        <time>2016-03-06T12:16:41Z</time>
      </trkpt>
      <trkpt lat="43.95958" lon="3.70419">
        <ele>262.32012008225</ele>
        <time>2016-03-06T12:18:28Z</time>
      </trkpt>
      <trkpt lat="43.95953" lon="3.70422">
        <ele>262.32012008225</ele>
        <time>2016-03-06T12:18:28Z</time>
      </trkpt>
      <trkpt lat="43.95929" lon="3.70412">
        <ele>264.25015897501</ele>
        <time>2016-03-06T12:18:58Z</time>
      </trkpt>
      <trkpt lat="43.95926" lon="3.70407">
        <ele>264.25015897501</ele>
        <time>2016-03-06T12:19:00Z</time>
      </trkpt>
      <trkpt lat="43.95908" lon="3.70379">
        <ele>265.97810397413</ele>
        <time>2016-03-06T12:19:28Z</time>
      </trkpt>
      <trkpt lat="43.95906" lon="3.70376">
        <ele>265.97810397413</ele>
        <time>2016-03-06T12:19:32Z</time>
      </trkpt>
      <trkpt lat="43.95854" lon="3.70417">
        <ele>267.71811106885</ele>
        <time>2016-03-06T12:20:33Z</time>
      </trkpt>
      <trkpt lat="43.95849" lon="3.70422">
        <ele>267.71811106885</ele>
        <time>2016-03-06T12:20:33Z</time>
      </trkpt>
      <trkpt lat="43.95844" lon="3.70421">
        <ele>269.38631500431</ele>
        <time>2016-03-06T12:20:44Z</time>
      </trkpt>
      <trkpt lat="43.95846" lon="3.70416">
        <ele>269.38631500431</ele>
        <time>2016-03-06T12:21:17Z</time>
      </trkpt>
      <trkpt lat="43.9585" lon="3.70412">
        <ele>269.38631500431</ele>
        <time>2016-03-06T12:21:17Z</time>
      </trkpt>
      <trkpt lat="43.95859" lon="3.70406">
        <ele>271.7283129784</ele>
        <time>2016-03-06T12:21:33Z</time>
      </trkpt>
      <trkpt lat="43.95875" lon="3.70385">
        <ele>274.40063344719</ele>
        <time>2016-03-06T12:21:54Z</time>
      </trkpt>
      <trkpt lat="43.95888" lon="3.70337">
        <ele>278.02859503632</ele>
        <time>2016-03-06T12:22:35Z</time>
      </trkpt>
      <trkpt lat="43.95894" lon="3.70335">
        <ele>278.02859503632</ele>
        <time>2016-03-06T12:22:35Z</time>
      </trkpt>
      <trkpt lat="43.95903" lon="3.70339">
        <ele>281.96026108331</ele>
        <time>2016-03-06T12:22:49Z</time>
      </trkpt>
      <trkpt lat="43.95903" lon="3.7034">
        <ele>281.96026108331</ele>
        <time>2016-03-06T12:22:50Z</time>
      </trkpt>
      <trkpt lat="43.95959" lon="3.70345">
        <ele>286.67451114276</ele>
        <time>2016-03-06T12:23:51Z</time>
      </trkpt>
      <trkpt lat="43.96008" lon="3.70274">
        <ele>293.98882657824</ele>
        <time>2016-03-06T12:25:12Z</time>
      </trkpt>
      <trkpt lat="43.96008" lon="3.70273">
        <ele>293.98882657824</ele>
        <time>2016-03-06T12:25:12Z</time>
      </trkpt>
      <trkpt lat="43.96101" lon="3.70297">
        <ele>303.09856765106</ele>
        <time>2016-03-06T12:27:05Z</time>
      </trkpt>
      <trkpt lat="43.96107" lon="3.70299">
        <ele>303.09856765106</ele>
        <time>2016-03-06T12:27:05Z</time>
      </trkpt>
      <trkpt lat="43.96125" lon="3.70296">
        <ele>311.96249577955</ele>
        <time>2016-03-06T12:27:30Z</time>
      </trkpt>
      <trkpt lat="43.96134" lon="3.70293">
        <ele>320.26891658331</ele>
        <time>2016-03-06T12:27:30Z</time>
      </trkpt>
      <trkpt lat="43.96143" lon="3.70283">
        <ele>328.1993252245</ele>
        <time>2016-03-06T12:27:48Z</time>
      </trkpt>
      <trkpt lat="43.96146" lon="3.70275">
        <ele>328.1993252245</ele>
        <time>2016-03-06T12:28:00Z</time>
      </trkpt>
      <trkpt lat="43.96139" lon="3.70214">
        <ele>335.50374270162</ele>
        <time>2016-03-06T12:28:48Z</time>
      </trkpt>
      <trkpt lat="43.96124" lon="3.70175">
        <ele>341.98543884287</ele>
        <time>2016-03-06T12:29:25Z</time>
      </trkpt>
      <trkpt lat="43.96118" lon="3.70166">
        <ele>341.98543884287</ele>
        <time>2016-03-06T12:29:25Z</time>
      </trkpt>
      <trkpt lat="43.96112" lon="3.70136">
        <ele>347.58882655556</ele>
        <time>2016-03-06T12:29:43Z</time>
      </trkpt>
      <trkpt lat="43.96117" lon="3.7007">
        <ele>353.03757025355</ele>
        <time>2016-03-06T12:30:45Z</time>
      </trkpt>
      <trkpt lat="43.96123" lon="3.70066">
        <ele>353.03757025355</ele>
        <time>2016-03-06T12:30:45Z</time>
      </trkpt>
      <trkpt lat="43.96125" lon="3.70065">
        <ele>357.76399242878</ele>
        <time>2016-03-06T12:30:50Z</time>
      </trkpt>
      <trkpt lat="43.96206" lon="3.7007">
        <ele>363.68809753451</ele>
        <time>2016-03-06T12:32:17Z</time>
      </trkpt>
      <trkpt lat="43.96207" lon="3.7007">
        <ele>363.68809753451</ele>
        <time>2016-03-06T12:32:18Z</time>
      </trkpt>
      <trkpt lat="43.96247" lon="3.70053">
        <ele>370.40531656305</ele>
        <time>2016-03-06T12:33:07Z</time>
      </trkpt>
      <trkpt lat="43.96262" lon="3.70052">
        <ele>376.56665762721</ele>
        <time>2016-03-06T12:33:25Z</time>
      </trkpt>
      <trkpt lat="43.96271" lon="3.7007">
        <ele>381.98521266122</ele>
        <time>2016-03-06T12:33:53Z</time>
      </trkpt>
      <trkpt lat="43.96281" lon="3.70082">
        <ele>387.00036318805</ele>
        <time>2016-03-06T12:34:11Z</time>
      </trkpt>
      <trkpt lat="43.96291" lon="3.70093">
        <ele>391.61184013751</ele>
        <time>2016-03-06T12:34:36Z</time>
      </trkpt>
      <trkpt lat="43.96298" lon="3.70098">
        <ele>391.61184013751</ele>
        <time>2016-03-06T12:34:37Z</time>
      </trkpt>
      <trkpt lat="43.96307" lon="3.70105">
        <ele>395.44941927264</ele>
        <time>2016-03-06T12:34:45Z</time>
      </trkpt>
      <trkpt lat="43.9631" lon="3.70108">
        <ele>395.44941927264</ele>
        <time>2016-03-06T12:34:53Z</time>
      </trkpt>
      <trkpt lat="43.96341" lon="3.70131">
        <ele>398.28017252303</ele>
        <time>2016-03-06T12:35:51Z</time>
      </trkpt>
      <trkpt lat="43.96395" lon="3.7017">
        <ele>400.38141416733</ele>
        <time>2016-03-06T12:36:58Z</time>
      </trkpt>
      <trkpt lat="43.96424" lon="3.70164">
        <ele>402.20079160704</ele>
        <time>2016-03-06T12:37:24Z</time>
      </trkpt>
      <trkpt lat="43.96427" lon="3.70164">
        <ele>402.20079160704</ele>
        <time>2016-03-06T12:37:27Z</time>
      </trkpt>
      <trkpt lat="43.96456" lon="3.70143">
        <ele>404.14921601721</ele>
        <time>2016-03-06T12:38:01Z</time>
      </trkpt>
      <trkpt lat="43.96474" lon="3.70132">
        <ele>406.00129450101</ele>
        <time>2016-03-06T12:38:26Z</time>
      </trkpt>
      <trkpt lat="43.96482" lon="3.7013">
        <ele>406.00129450101</ele>
        <time>2016-03-06T12:38:26Z</time>
      </trkpt>
      <trkpt lat="43.9649" lon="3.70126">
        <ele>407.71161486706</ele>
        <time>2016-03-06T12:38:43Z</time>
      </trkpt>
      <trkpt lat="43.96497" lon="3.7012">
        <ele>407.71161486706</ele>
        <time>2016-03-06T12:38:43Z</time>
      </trkpt>
      <trkpt lat="43.96498" lon="3.70118">
        <ele>409.20959699971</ele>
        <time>2016-03-06T12:38:45Z</time>
      </trkpt>
      <trkpt lat="43.96511" lon="3.70087">
        <ele>411.02911127866</ele>
        <time>2016-03-06T12:39:25Z</time>
      </trkpt>
      <trkpt lat="43.96516" lon="3.70081">
        <ele>411.02911127866</ele>
        <time>2016-03-06T12:39:25Z</time>
      </trkpt>
      <trkpt lat="43.9652" lon="3.70072">
        <ele>412.72801779675</ele>
        <time>2016-03-06T12:39:42Z</time>
      </trkpt>
      <trkpt lat="43.96526" lon="3.70051">
        <ele>414.39441102397</ele>
        <time>2016-03-06T12:39:56Z</time>
      </trkpt>
      <trkpt lat="43.96545" lon="3.70021">
        <ele>416.28374164198</ele>
        <time>2016-03-06T12:40:32Z</time>
      </trkpt>
      <trkpt lat="43.96552" lon="3.70015">
        <ele>416.28374164198</ele>
        <time>2016-03-06T12:40:32Z</time>
      </trkpt>
      <trkpt lat="43.96613" lon="3.69987">
        <ele>419.66060297873</ele>
        <time>2016-03-06T12:41:41Z</time>
      </trkpt>
      <trkpt lat="43.96632" lon="3.69986">
        <ele>423.20995902548</ele>
        <time>2016-03-06T12:42:00Z</time>
      </trkpt>
      <trkpt lat="43.96655" lon="3.69996">
        <ele>426.89105037091</ele>
        <time>2016-03-06T12:42:36Z</time>
      </trkpt>
      <trkpt lat="43.96665" lon="3.69999">
        <ele>430.23210241767</ele>
        <time>2016-03-06T12:42:36Z</time>
      </trkpt>
      <trkpt lat="43.96676" lon="3.70006">
        <ele>433.28958345176</ele>
        <time>2016-03-06T12:42:45Z</time>
      </trkpt>
      <trkpt lat="43.9668" lon="3.7001">
        <ele>433.28958345176</ele>
        <time>2016-03-06T12:43:04Z</time>
      </trkpt>
      <trkpt lat="43.96685" lon="3.70011">
        <ele>436.10182364326</ele>
        <time>2016-03-06T12:43:04Z</time>
      </trkpt>
      <trkpt lat="43.96691" lon="3.70013">
        <ele>436.10182364326</ele>
        <time>2016-03-06T12:43:09Z</time>
      </trkpt>
      <trkpt lat="43.96708" lon="3.70012">
        <ele>438.45937967371</ele>
        <time>2016-03-06T12:43:26Z</time>
      </trkpt>
      <trkpt lat="43.96746" lon="3.70013">
        <ele>440.92000091806</ele>
        <time>2016-03-06T12:44:12Z</time>
      </trkpt>
      <trkpt lat="43.96756" lon="3.70007">
        <ele>442.87413057766</ele>
        <time>2016-03-06T12:44:12Z</time>
      </trkpt>
      <trkpt lat="43.96796" lon="3.70005">
        <ele>444.36466805505</ele>
        <time>2016-03-06T12:44:54Z</time>
      </trkpt>
      <trkpt lat="43.96803" lon="3.70005">
        <ele>444.36466805505</ele>
        <time>2016-03-06T12:44:54Z</time>
      </trkpt>
      <trkpt lat="43.96822" lon="3.70006">
        <ele>445.36033963794</ele>
        <time>2016-03-06T12:45:11Z</time>
      </trkpt>
      <trkpt lat="43.96865" lon="3.70019">
        <ele>446.25154593121</ele>
        <time>2016-03-06T12:45:57Z</time>
      </trkpt>
      <trkpt lat="43.96929" lon="3.70025">
        <ele>446.24660755022</ele>
        <time>2016-03-06T12:46:45Z</time>
      </trkpt>
      <trkpt lat="43.96946" lon="3.70031">
        <ele>445.8255796746</ele>
        <time>2016-03-06T12:47:06Z</time>
      </trkpt>
      <trkpt lat="43.9695" lon="3.70037">
        <ele>445.8255796746</ele>
        <time>2016-03-06T12:47:06Z</time>
      </trkpt>
      <trkpt lat="43.96984" lon="3.7018">
        <ele>446.41459354335</ele>
        <time>2016-03-06T12:49:36Z</time>
      </trkpt>
      <trkpt lat="43.96994" lon="3.70211">
        <ele>447.03962607072</ele>
        <time>2016-03-06T12:50:01Z</time>
      </trkpt>
      <trkpt lat="43.97011" lon="3.70253">
        <ele>448.11000783698</ele>
        <time>2016-03-06T12:50:46Z</time>
      </trkpt>
      <trkpt lat="43.97025" lon="3.70304">
        <ele>449.67197836146</ele>
        <time>2016-03-06T12:51:36Z</time>
      </trkpt>
      <trkpt lat="43.97027" lon="3.70308">
        <ele>449.67197836146</ele>
        <time>2016-03-06T12:51:36Z</time>
      </trkpt>
      <trkpt lat="43.97034" lon="3.70321">
        <ele>451.33421268655</ele>
        <time>2016-03-06T12:51:45Z</time>
      </trkpt>
      <trkpt lat="43.9704" lon="3.70336">
        <ele>453.03643297433</ele>
        <time>2016-03-06T12:52:05Z</time>
      </trkpt>
      <trkpt lat="43.97044" lon="3.70343">
        <ele>453.03643297433</ele>
        <time>2016-03-06T12:52:07Z</time>
      </trkpt>
      <trkpt lat="43.97064" lon="3.7038">
        <ele>455.27049344835</ele>
        <time>2016-03-06T12:52:43Z</time>
      </trkpt>
      <trkpt lat="43.97065" lon="3.70382">
        <ele>455.27049344835</ele>
        <time>2016-03-06T12:52:44Z</time>
      </trkpt>
      <trkpt lat="43.9707" lon="3.70389">
        <ele>455.27049344835</ele>
        <time>2016-03-06T12:52:51Z</time>
      </trkpt>
      <trkpt lat="43.97075" lon="3.70399">
        <ele>457.53858228829</ele>
        <time>2016-03-06T12:53:08Z</time>
      </trkpt>
      <trkpt lat="43.97076" lon="3.70406">
        <ele>457.53858228829</ele>
        <time>2016-03-06T12:53:08Z</time>
      </trkpt>
      <trkpt lat="43.97085" lon="3.70417">
        <ele>459.86949254072</ele>
        <time>2016-03-06T12:53:26Z</time>
      </trkpt>
      <trkpt lat="43.97114" lon="3.70444">
        <ele>462.75109481275</ele>
        <time>2016-03-06T12:54:15Z</time>
      </trkpt>
      <trkpt lat="43.97113" lon="3.70483">
        <ele>465.91249668299</ele>
        <time>2016-03-06T12:54:38Z</time>
      </trkpt>
      <trkpt lat="43.97114" lon="3.70485">
        <ele>465.91249668299</ele>
        <time>2016-03-06T12:54:40Z</time>
      </trkpt>
      <trkpt lat="43.97111" lon="3.70496">
        <ele>468.85651917439</ele>
        <time>2016-03-06T12:54:48Z</time>
      </trkpt>
      <trkpt lat="43.97107" lon="3.70517">
        <ele>471.71437617296</ele>
        <time>2016-03-06T12:55:13Z</time>
      </trkpt>
      <trkpt lat="43.97113" lon="3.70599">
        <ele>475.44435620145</ele>
        <time>2016-03-06T12:56:22Z</time>
      </trkpt>
      <trkpt lat="43.97111" lon="3.70613">
        <ele>478.91229256866</ele>
        <time>2016-03-06T12:56:22Z</time>
      </trkpt>
      <trkpt lat="43.97094" lon="3.7063">
        <ele>482.27969111863</ele>
        <time>2016-03-06T12:57:05Z</time>
      </trkpt>
      <trkpt lat="43.97086" lon="3.70652">
        <ele>485.26366042685</ele>
        <time>2016-03-06T12:57:42Z</time>
      </trkpt>
      <trkpt lat="43.97063" lon="3.70681">
        <ele>487.90601948137</ele>
        <time>2016-03-06T12:58:40Z</time>
      </trkpt>
      <trkpt lat="43.97052" lon="3.70688">
        <ele>490.18870995789</ele>
        <time>2016-03-06T12:59:06Z</time>
      </trkpt>
      <trkpt lat="43.97052" lon="3.7074">
        <ele>492.1824789498</ele>
        <time>2016-03-06T13:01:05Z</time>
      </trkpt>
      <trkpt lat="43.97054" lon="3.7074">
        <ele>492.1824789498</ele>
        <time>2016-03-06T13:01:05Z</time>
      </trkpt>
      <trkpt lat="43.97063" lon="3.70732">
        <ele>495.0063435718</ele>
        <time>2016-03-06T13:02:37Z</time>
      </trkpt>
      <trkpt lat="43.97059" lon="3.7074">
        <ele>495.0063435718</ele>
        <time>2016-03-06T13:03:43Z</time>
      </trkpt>
      <trkpt lat="43.97069" lon="3.70742">
        <ele>499.92520783522</ele>
        <time>2016-03-06T13:07:00Z</time>
      </trkpt>
      <trkpt lat="43.97069" lon="3.70743">
        <ele>499.92520783522</ele>
        <time>2016-03-06T13:07:10Z</time>
      </trkpt>
      <trkpt lat="43.97061" lon="3.70737">
        <ele>504.61531206328</ele>
        <time>2016-03-06T13:08:00Z</time>
      </trkpt>
      <trkpt lat="43.97054" lon="3.70745">
        <ele>508.29450220947</ele>
        <time>2016-03-06T13:27:43Z</time>
      </trkpt>
      <trkpt lat="43.97053" lon="3.70746">
        <ele>508.29450220947</ele>
        <time>2016-03-06T13:27:45Z</time>
      </trkpt>
      <trkpt lat="43.97049" lon="3.70741">
        <ele>508.29450220947</ele>
        <time>2016-03-06T13:28:00Z</time>
      </trkpt>
      <trkpt lat="43.97053" lon="3.70718">
        <ele>511.22149405953</ele>
        <time>2016-03-06T13:28:43Z</time>
      </trkpt>
      <trkpt lat="43.97057" lon="3.70704">
        <ele>513.6092057777</ele>
        <time>2016-03-06T13:29:00Z</time>
      </trkpt>
      <trkpt lat="43.97059" lon="3.70702">
        <ele>513.6092057777</ele>
        <time>2016-03-06T13:29:05Z</time>
      </trkpt>
      <trkpt lat="43.97064" lon="3.70696">
        <ele>515.56987452047</ele>
        <time>2016-03-06T13:29:19Z</time>
      </trkpt>
      <trkpt lat="43.97068" lon="3.70693">
        <ele>515.56987452047</ele>
        <time>2016-03-06T13:29:45Z</time>
      </trkpt>
      <trkpt lat="43.97074" lon="3.70668">
        <ele>517.00683417082</ele>
        <time>2016-03-06T13:29:45Z</time>
      </trkpt>
      <trkpt lat="43.97124" lon="3.70569">
        <ele>516.64992701782</ele>
        <time>2016-03-06T13:31:37Z</time>
      </trkpt>
      <trkpt lat="43.9712" lon="3.70554">
        <ele>516.00865152161</ele>
        <time>2016-03-06T13:31:37Z</time>
      </trkpt>
      <trkpt lat="43.97122" lon="3.7048">
        <ele>514.34881913958</ele>
        <time>2016-03-06T13:32:25Z</time>
      </trkpt>
      <trkpt lat="43.97121" lon="3.70479">
        <ele>514.34881913958</ele>
        <time>2016-03-06T13:32:26Z</time>
      </trkpt>
      <trkpt lat="43.97122" lon="3.70442">
        <ele>512.13174341651</ele>
        <time>2016-03-06T13:33:03Z</time>
      </trkpt>
      <trkpt lat="43.97087" lon="3.70409">
        <ele>509.36826184302</ele>
        <time>2016-03-06T13:33:22Z</time>
      </trkpt>
      <trkpt lat="43.97086" lon="3.70407">
        <ele>509.36826184302</ele>
        <time>2016-03-06T13:33:25Z</time>
      </trkpt>
      <trkpt lat="43.97083" lon="3.70404">
        <ele>509.36826184302</ele>
        <time>2016-03-06T13:33:30Z</time>
      </trkpt>
      <trkpt lat="43.9708" lon="3.70398">
        <ele>506.38689791424</ele>
        <time>2016-03-06T13:33:40Z</time>
      </trkpt>
      <trkpt lat="43.97078" lon="3.70396">
        <ele>506.38689791424</ele>
        <time>2016-03-06T13:33:45Z</time>
      </trkpt>
      <trkpt lat="43.97076" lon="3.70391">
        <ele>506.38689791424</ele>
        <time>2016-03-06T13:33:55Z</time>
      </trkpt>
      <trkpt lat="43.97072" lon="3.70385">
        <ele>503.00242941228</ele>
        <time>2016-03-06T13:34:00Z</time>
      </trkpt>
      <trkpt lat="43.97065" lon="3.70373">
        <ele>499.53421038101</ele>
        <time>2016-03-06T13:34:10Z</time>
      </trkpt>
      <trkpt lat="43.97063" lon="3.70369">
        <ele>499.53421038101</ele>
        <time>2016-03-06T13:34:15Z</time>
      </trkpt>
      <trkpt lat="43.97054" lon="3.70357">
        <ele>495.93223247039</ele>
        <time>2016-03-06T13:34:26Z</time>
      </trkpt>
      <trkpt lat="43.97051" lon="3.70355">
        <ele>495.93223247039</ele>
        <time>2016-03-06T13:34:30Z</time>
      </trkpt>
      <trkpt lat="43.97043" lon="3.70337">
        <ele>492.04940177203</ele>
        <time>2016-03-06T13:34:40Z</time>
      </trkpt>
      <trkpt lat="43.97041" lon="3.70331">
        <ele>492.04940177203</ele>
        <time>2016-03-06T13:34:45Z</time>
      </trkpt>
      <trkpt lat="43.97035" lon="3.70314">
        <ele>487.86523304421</ele>
        <time>2016-03-06T13:35:00Z</time>
      </trkpt>
      <trkpt lat="43.97033" lon="3.70307">
        <ele>487.86523304421</ele>
        <time>2016-03-06T13:35:06Z</time>
      </trkpt>
      <trkpt lat="43.97029" lon="3.70295">
        <ele>483.57745081517</ele>
        <time>2016-03-06T13:35:15Z</time>
      </trkpt>
      <trkpt lat="43.97026" lon="3.70288">
        <ele>483.57745081517</ele>
        <time>2016-03-06T13:35:20Z</time>
      </trkpt>
      <trkpt lat="43.97022" lon="3.70271">
        <ele>479.18185053577</ele>
        <time>2016-03-06T13:35:35Z</time>
      </trkpt>
      <trkpt lat="43.9702" lon="3.70265">
        <ele>479.18185053577</ele>
        <time>2016-03-06T13:35:40Z</time>
      </trkpt>
      <trkpt lat="43.97016" lon="3.7025">
        <ele>474.77535424386</ele>
        <time>2016-03-06T13:35:50Z</time>
      </trkpt>
      <trkpt lat="43.97012" lon="3.70241">
        <ele>474.77535424386</ele>
        <time>2016-03-06T13:35:55Z</time>
      </trkpt>
      <trkpt lat="43.9701" lon="3.70223">
        <ele>470.31770399805</ele>
        <time>2016-03-06T13:36:11Z</time>
      </trkpt>
      <trkpt lat="43.9701" lon="3.70217">
        <ele>470.31770399805</ele>
        <time>2016-03-06T13:36:15Z</time>
      </trkpt>
      <trkpt lat="43.97005" lon="3.70202">
        <ele>465.8289802752</ele>
        <time>2016-03-06T13:36:31Z</time>
      </trkpt>
      <trkpt lat="43.97003" lon="3.70196">
        <ele>465.8289802752</ele>
        <time>2016-03-06T13:36:35Z</time>
      </trkpt>
      <trkpt lat="43.96998" lon="3.70181">
        <ele>461.4427392069</ele>
        <time>2016-03-06T13:36:45Z</time>
      </trkpt>
      <trkpt lat="43.96997" lon="3.70172">
        <ele>461.4427392069</ele>
        <time>2016-03-06T13:36:50Z</time>
      </trkpt>
      <trkpt lat="43.96997" lon="3.70159">
        <ele>457.12347272478</ele>
        <time>2016-03-06T13:37:00Z</time>
      </trkpt>
      <trkpt lat="43.96997" lon="3.70151">
        <ele>457.12347272478</ele>
        <time>2016-03-06T13:37:06Z</time>
      </trkpt>
      <trkpt lat="43.96993" lon="3.70135">
        <ele>452.80881654301</ele>
        <time>2016-03-06T13:37:15Z</time>
      </trkpt>
      <trkpt lat="43.96992" lon="3.70129">
        <ele>452.80881654301</ele>
        <time>2016-03-06T13:37:20Z</time>
      </trkpt>
      <trkpt lat="43.96991" lon="3.7011">
        <ele>448.52697767396</ele>
        <time>2016-03-06T13:37:41Z</time>
      </trkpt>
      <trkpt lat="43.9699" lon="3.70102">
        <ele>448.52697767396</ele>
        <time>2016-03-06T13:37:41Z</time>
      </trkpt>
      <trkpt lat="43.96991" lon="3.70089">
        <ele>444.53410812089</ele>
        <time>2016-03-06T13:37:57Z</time>
      </trkpt>
      <trkpt lat="43.96994" lon="3.70077">
        <ele>440.92214490443</ele>
        <time>2016-03-06T13:37:57Z</time>
      </trkpt>
      <trkpt lat="43.96973" lon="3.70046">
        <ele>437.77472766823</ele>
        <time>2016-03-06T13:38:38Z</time>
      </trkpt>
      <trkpt lat="43.96969" lon="3.70039">
        <ele>437.77472766823</ele>
        <time>2016-03-06T13:38:39Z</time>
      </trkpt>
      <trkpt lat="43.97008" lon="3.70031">
        <ele>434.92258390602</ele>
        <time>2016-03-06T13:39:59Z</time>
      </trkpt>
      <trkpt lat="43.97009" lon="3.70032">
        <ele>434.92258390602</ele>
        <time>2016-03-06T13:40:00Z</time>
      </trkpt>
      <trkpt lat="43.97023" lon="3.70051">
        <ele>432.23640523907</ele>
        <time>2016-03-06T13:40:24Z</time>
      </trkpt>
      <trkpt lat="43.97029" lon="3.7006">
        <ele>429.81163464884</ele>
        <time>2016-03-06T13:40:26Z</time>
      </trkpt>
      <trkpt lat="43.97088" lon="3.70096">
        <ele>426.88525619323</ele>
        <time>2016-03-06T13:41:16Z</time>
      </trkpt>
      <trkpt lat="43.97112" lon="3.70103">
        <ele>423.1115693516</ele>
        <time>2016-03-06T13:41:47Z</time>
      </trkpt>
      <trkpt lat="43.97123" lon="3.701">
        <ele>419.33955934469</ele>
        <time>2016-03-06T13:41:48Z</time>
      </trkpt>
      <trkpt lat="43.97165" lon="3.70102">
        <ele>414.82781779559</ele>
        <time>2016-03-06T13:42:32Z</time>
      </trkpt>
      <trkpt lat="43.97211" lon="3.70099">
        <ele>409.46753142577</ele>
        <time>2016-03-06T13:43:09Z</time>
      </trkpt>
      <trkpt lat="43.97219" lon="3.70093">
        <ele>404.44248206423</ele>
        <time>2016-03-06T13:43:09Z</time>
      </trkpt>
      <trkpt lat="43.97247" lon="3.70094">
        <ele>399.72405196386</ele>
        <time>2016-03-06T13:43:37Z</time>
      </trkpt>
      <trkpt lat="43.97254" lon="3.70096">
        <ele>399.72405196386</ele>
        <time>2016-03-06T13:43:39Z</time>
      </trkpt>
      <trkpt lat="43.97255" lon="3.70097">
        <ele>399.72405196386</ele>
        <time>2016-03-06T13:43:42Z</time>
      </trkpt>
      <trkpt lat="43.97283" lon="3.70077">
        <ele>395.84651266502</ele>
        <time>2016-03-06T13:44:00Z</time>
      </trkpt>
      <trkpt lat="43.9734" lon="3.70069">
        <ele>392.30774039374</ele>
        <time>2016-03-06T13:45:16Z</time>
      </trkpt>
      <trkpt lat="43.9734" lon="3.7008">
        <ele>392.30774039374</ele>
        <time>2016-03-06T13:45:16Z</time>
      </trkpt>
      <trkpt lat="43.97341" lon="3.70103">
        <ele>389.40496965747</ele>
        <time>2016-03-06T13:45:35Z</time>
      </trkpt>
      <trkpt lat="43.97359" lon="3.70143">
        <ele>387.45467836476</ele>
        <time>2016-03-06T13:46:07Z</time>
      </trkpt>
      <trkpt lat="43.97367" lon="3.70152">
        <ele>386.05532436952</ele>
        <time>2016-03-06T13:46:07Z</time>
      </trkpt>
      <trkpt lat="43.97381" lon="3.70174">
        <ele>385.62562296994</ele>
        <time>2016-03-06T13:46:27Z</time>
      </trkpt>
      <trkpt lat="43.9736" lon="3.70238">
        <ele>386.2911124592</ele>
        <time>2016-03-06T13:47:25Z</time>
      </trkpt>
      <trkpt lat="43.97359" lon="3.70238">
        <ele>386.2911124592</ele>
        <time>2016-03-06T13:47:33Z</time>
      </trkpt>
      <trkpt lat="43.97351" lon="3.70249">
        <ele>387.18480968781</ele>
        <time>2016-03-06T13:47:55Z</time>
      </trkpt>
      <trkpt lat="43.9735" lon="3.70251">
        <ele>387.18480968781</ele>
        <time>2016-03-06T13:48:02Z</time>
      </trkpt>
      <trkpt lat="43.97357" lon="3.70266">
        <ele>387.54580437132</ele>
        <time>2016-03-06T13:48:40Z</time>
      </trkpt>
      <trkpt lat="43.97426" lon="3.70314">
        <ele>385.87778098872</ele>
        <time>2016-03-06T13:50:01Z</time>
      </trkpt>
      <trkpt lat="43.97427" lon="3.70316">
        <ele>385.87778098872</ele>
        <time>2016-03-06T13:50:02Z</time>
      </trkpt>
      <trkpt lat="43.97433" lon="3.7033">
        <ele>383.39393066092</ele>
        <time>2016-03-06T13:50:28Z</time>
      </trkpt>
      <trkpt lat="43.97459" lon="3.70348">
        <ele>380.05316698586</ele>
        <time>2016-03-06T13:50:48Z</time>
      </trkpt>
      <trkpt lat="43.97509" lon="3.70398">
        <ele>375.43060714899</ele>
        <time>2016-03-06T13:51:48Z</time>
      </trkpt>
      <trkpt lat="43.97536" lon="3.70425">
        <ele>370.63483452944</ele>
        <time>2016-03-06T13:52:18Z</time>
      </trkpt>
      <trkpt lat="43.97538" lon="3.70428">
        <ele>370.63483452944</ele>
        <time>2016-03-06T13:52:20Z</time>
      </trkpt>
      <trkpt lat="43.97713" lon="3.70487">
        <ele>364.90636711153</ele>
        <time>2016-03-06T13:55:08Z</time>
      </trkpt>
      <trkpt lat="43.97724" lon="3.70484">
        <ele>359.83539006291</ele>
        <time>2016-03-06T13:55:08Z</time>
      </trkpt>
      <trkpt lat="43.97726" lon="3.70485">
        <ele>359.83539006291</ele>
        <time>2016-03-06T13:55:10Z</time>
      </trkpt>
      <trkpt lat="43.97753" lon="3.70492">
        <ele>355.10629869805</ele>
        <time>2016-03-06T13:55:49Z</time>
      </trkpt>
      <trkpt lat="43.97773" lon="3.70514">
        <ele>351.08848499653</ele>
        <time>2016-03-06T13:55:49Z</time>
      </trkpt>
      <trkpt lat="43.97778" lon="3.70525">
        <ele>347.5023801203</ele>
        <time>2016-03-06T13:56:00Z</time>
      </trkpt>
      <trkpt lat="43.97781" lon="3.70527">
        <ele>347.5023801203</ele>
        <time>2016-03-06T13:56:00Z</time>
      </trkpt>
      <trkpt lat="43.97796" lon="3.70546">
        <ele>343.95789300969</ele>
        <time>2016-03-06T13:56:17Z</time>
      </trkpt>
      <trkpt lat="43.97798" lon="3.70549">
        <ele>343.95789300969</ele>
        <time>2016-03-06T13:56:20Z</time>
      </trkpt>
      <trkpt lat="43.97805" lon="3.70561">
        <ele>340.65536284094</ele>
        <time>2016-03-06T13:56:38Z</time>
      </trkpt>
      <trkpt lat="43.97808" lon="3.70569">
        <ele>340.65536284094</ele>
        <time>2016-03-06T13:56:38Z</time>
      </trkpt>
      <trkpt lat="43.97842" lon="3.70625">
        <ele>335.96378703642</ele>
        <time>2016-03-06T13:57:22Z</time>
      </trkpt>
      <trkpt lat="43.97849" lon="3.70631">
        <ele>335.96378703642</ele>
        <time>2016-03-06T13:57:39Z</time>
      </trkpt>
      <trkpt lat="43.97855" lon="3.70639">
        <ele>331.30119843454</ele>
        <time>2016-03-06T13:57:39Z</time>
      </trkpt>
      <trkpt lat="43.97856" lon="3.7064">
        <ele>331.30119843454</ele>
        <time>2016-03-06T13:57:40Z</time>
      </trkpt>
      <trkpt lat="43.97869" lon="3.7065">
        <ele>326.85717309665</ele>
        <time>2016-03-06T13:57:52Z</time>
      </trkpt>
      <trkpt lat="43.97871" lon="3.70651">
        <ele>326.85717309665</ele>
        <time>2016-03-06T13:58:00Z</time>
      </trkpt>
      <trkpt lat="43.97873" lon="3.70647">
        <ele>326.85717309665</ele>
        <time>2016-03-06T13:58:00Z</time>
      </trkpt>
      <trkpt lat="43.97874" lon="3.70641">
        <ele>322.43192130504</ele>
        <time>2016-03-06T13:58:08Z</time>
      </trkpt>
      <trkpt lat="43.97887" lon="3.70636">
        <ele>318.01307279154</ele>
        <time>2016-03-06T13:58:43Z</time>
      </trkpt>
      <trkpt lat="43.97887" lon="3.70636">
        <ele>318.01307279154</ele>
        <time>2016-03-06T13:58:48Z</time>
      </trkpt>
      <trkpt lat="43.97935" lon="3.70695">
        <ele>312.17671710079</ele>
        <time>2016-03-06T13:59:51Z</time>
      </trkpt>
      <trkpt lat="43.97936" lon="3.70702">
        <ele>312.17671710079</ele>
        <time>2016-03-06T13:59:52Z</time>
      </trkpt>
      <trkpt lat="43.97948" lon="3.70701">
        <ele>305.63934348284</ele>
        <time>2016-03-06T14:00:16Z</time>
      </trkpt>
      <trkpt lat="43.97949" lon="3.707">
        <ele>305.63934348284</ele>
        <time>2016-03-06T14:00:16Z</time>
      </trkpt>
      <trkpt lat="43.97943" lon="3.70593">
        <ele>296.67437069156</ele>
        <time>2016-03-06T14:02:27Z</time>
      </trkpt>
      <trkpt lat="43.9795" lon="3.70599">
        <ele>296.67437069156</ele>
        <time>2016-03-06T14:02:27Z</time>
      </trkpt>
      <trkpt lat="43.97973" lon="3.70629">
        <ele>288.01202270107</ele>
        <time>2016-03-06T14:03:02Z</time>
      </trkpt>
      <trkpt lat="43.98012" lon="3.70721">
        <ele>278.80871144551</ele>
        <time>2016-03-06T14:04:16Z</time>
      </trkpt>
      <trkpt lat="43.98011" lon="3.70755">
        <ele>269.84050974677</ele>
        <time>2016-03-06T14:04:43Z</time>
      </trkpt>
      <trkpt lat="43.98012" lon="3.70756">
        <ele>269.84050974677</ele>
        <time>2016-03-06T14:04:49Z</time>
      </trkpt>
      <trkpt lat="43.98014" lon="3.70762">
        <ele>269.84050974677</ele>
        <time>2016-03-06T14:04:50Z</time>
      </trkpt>
      <trkpt lat="43.98013" lon="3.70765">
        <ele>269.84050974677</ele>
        <time>2016-03-06T14:04:51Z</time>
      </trkpt>
      <trkpt lat="43.9801" lon="3.70789">
        <ele>261.10500985358</ele>
        <time>2016-03-06T14:05:15Z</time>
      </trkpt>
      <trkpt lat="43.9801" lon="3.70802">
        <ele>253.16108321699</ele>
        <time>2016-03-06T14:05:16Z</time>
      </trkpt>
      <trkpt lat="43.98" lon="3.70826">
        <ele>245.73141739616</ele>
        <time>2016-03-06T14:05:35Z</time>
      </trkpt>
      <trkpt lat="43.97993" lon="3.7085">
        <ele>238.71584098643</ele>
        <time>2016-03-06T14:05:55Z</time>
      </trkpt>
      <trkpt lat="43.97992" lon="3.70888">
        <ele>231.64537317967</ele>
        <time>2016-03-06T14:06:12Z</time>
      </trkpt>
      <trkpt lat="43.97989" lon="3.70918">
        <ele>224.93557514774</ele>
        <time>2016-03-06T14:06:31Z</time>
      </trkpt>
      <trkpt lat="43.97987" lon="3.70929">
        <ele>224.93557514774</ele>
        <time>2016-03-06T14:06:31Z</time>
      </trkpt>
      <trkpt lat="43.97974" lon="3.70957">
        <ele>217.41374811705</ele>
        <time>2016-03-06T14:06:57Z</time>
      </trkpt>
      <trkpt lat="43.97979" lon="3.71026">
        <ele>208.78790752181</ele>
        <time>2016-03-06T14:07:39Z</time>
      </trkpt>
      <trkpt lat="43.97982" lon="3.71036">
        <ele>208.78790752181</ele>
        <time>2016-03-06T14:07:40Z</time>
      </trkpt>
      <trkpt lat="43.97989" lon="3.71073">
        <ele>200.49080415569</ele>
        <time>2016-03-06T14:08:00Z</time>
      </trkpt>
      <trkpt lat="43.9799" lon="3.71097">
        <ele>193.04166850062</ele>
        <time>2016-03-06T14:08:15Z</time>
      </trkpt>
      <trkpt lat="43.97987" lon="3.71117">
        <ele>186.58742667798</ele>
        <time>2016-03-06T14:08:24Z</time>
      </trkpt>
      <trkpt lat="43.97974" lon="3.71254">
        <ele>180.28113922957</ele>
        <time>2016-03-06T14:10:00Z</time>
      </trkpt>
      <trkpt lat="43.97974" lon="3.71278">
        <ele>174.67758599802</ele>
        <time>2016-03-06T14:10:14Z</time>
      </trkpt>
      <trkpt lat="43.97975" lon="3.71284">
        <ele>174.67758599802</ele>
        <time>2016-03-06T14:10:17Z</time>
      </trkpt>
      <trkpt lat="43.97978" lon="3.71342">
        <ele>170.60556646893</ele>
        <time>2016-03-06T14:11:45Z</time>
      </trkpt>
      <trkpt lat="43.97961" lon="3.71381">
        <ele>167.40172156879</ele>
        <time>2016-03-06T14:12:15Z</time>
      </trkpt>
      <trkpt lat="43.97942" lon="3.71424">
        <ele>165.0395944381</ele>
        <time>2016-03-06T14:12:53Z</time>
      </trkpt>
      <trkpt lat="43.97941" lon="3.71424">
        <ele>165.0395944381</ele>
        <time>2016-03-06T14:12:58Z</time>
      </trkpt>
      <trkpt lat="43.97934" lon="3.71453">
        <ele>163.29034173445</ele>
        <time>2016-03-06T14:13:27Z</time>
      </trkpt>
      <trkpt lat="43.97938" lon="3.71456">
        <ele>163.29034173445</ele>
        <time>2016-03-06T14:13:27Z</time>
      </trkpt>
      <trkpt lat="43.97932" lon="3.71476">
        <ele>162.11297290439</ele>
        <time>2016-03-06T14:13:47Z</time>
      </trkpt>
      <trkpt lat="43.97925" lon="3.71488">
        <ele>161.45336497591</ele>
        <time>2016-03-06T14:13:52Z</time>
      </trkpt>
      <trkpt lat="43.97899" lon="3.71502">
        <ele>161.24542515201</ele>
        <time>2016-03-06T14:14:17Z</time>
      </trkpt>
      <trkpt lat="43.97897" lon="3.71511">
        <ele>161.24542515201</ele>
        <time>2016-03-06T14:14:17Z</time>
      </trkpt>
      <trkpt lat="43.97906" lon="3.71542">
        <ele>161.34014686516</ele>
        <time>2016-03-06T14:14:44Z</time>
      </trkpt>
      <trkpt lat="43.9791" lon="3.7159">
        <ele>161.81479948608</ele>
        <time>2016-03-06T14:15:21Z</time>
      </trkpt>
      <trkpt lat="43.97912" lon="3.71594">
        <ele>161.81479948608</ele>
        <time>2016-03-06T14:15:25Z</time>
      </trkpt>
      <trkpt lat="43.97912" lon="3.71599">
        <ele>161.81479948608</ele>
        <time>2016-03-06T14:15:30Z</time>
      </trkpt>
      <trkpt lat="43.97915" lon="3.71604">
        <ele>162.82643663203</ele>
        <time>2016-03-06T14:15:35Z</time>
      </trkpt>
      <trkpt lat="43.9792" lon="3.71619">
        <ele>164.05801864624</ele>
        <time>2016-03-06T14:15:45Z</time>
      </trkpt>
      <trkpt lat="43.9792" lon="3.71619">
        <ele>164.05801864624</ele>
        <time>2016-03-06T14:15:50Z</time>
      </trkpt>
      <trkpt lat="43.97932" lon="3.71622">
        <ele>165.47473043184</ele>
        <time>2016-03-06T14:16:30Z</time>
      </trkpt>
      <trkpt lat="43.97937" lon="3.71622">
        <ele>165.47473043184</ele>
        <time>2016-03-06T14:16:35Z</time>
      </trkpt>
      <trkpt lat="43.9794" lon="3.71626">
        <ele>165.47473043184</ele>
        <time>2016-03-06T14:16:40Z</time>
      </trkpt>
      <trkpt lat="43.97907" lon="3.71665">
        <ele>167.17369140442</ele>
        <time>2016-03-06T14:17:08Z</time>
      </trkpt>
      <trkpt lat="43.97906" lon="3.71669">
        <ele>167.17369140442</ele>
        <time>2016-03-06T14:17:10Z</time>
      </trkpt>
      <trkpt lat="43.97877" lon="3.71735">
        <ele>169.28756760808</ele>
        <time>2016-03-06T14:18:05Z</time>
      </trkpt>
      <trkpt lat="43.97875" lon="3.71742">
        <ele>169.28756760808</ele>
        <time>2016-03-06T14:18:10Z</time>
      </trkpt>
      <trkpt lat="43.97874" lon="3.71748">
        <ele>171.8086965092</ele>
        <time>2016-03-06T14:18:29Z</time>
      </trkpt>
      <trkpt lat="43.97874" lon="3.71749">
        <ele>171.8086965092</ele>
        <time>2016-03-06T14:18:29Z</time>
      </trkpt>
      <trkpt lat="43.97873" lon="3.71756">
        <ele>171.8086965092</ele>
        <time>2016-03-06T14:18:38Z</time>
      </trkpt>
      <trkpt lat="43.9787" lon="3.71758">
        <ele>174.54181269296</ele>
        <time>2016-03-06T14:18:46Z</time>
      </trkpt>
      <trkpt lat="43.97856" lon="3.71758">
        <ele>177.70927201333</ele>
        <time>2016-03-06T14:19:12Z</time>
      </trkpt>
      <trkpt lat="43.97846" lon="3.71761">
        <ele>180.85336425884</ele>
        <time>2016-03-06T14:19:17Z</time>
      </trkpt>
      <trkpt lat="43.97747" lon="3.71746">
        <ele>184.83309227225</ele>
        <time>2016-03-06T14:20:38Z</time>
      </trkpt>
      <trkpt lat="43.97743" lon="3.71747">
        <ele>184.83309227225</ele>
        <time>2016-03-06T14:20:40Z</time>
      </trkpt>
      <trkpt lat="43.9773" lon="3.71748">
        <ele>188.62668116164</ele>
        <time>2016-03-06T14:20:58Z</time>
      </trkpt>
      <trkpt lat="43.97694" lon="3.71753">
        <ele>192.25398369329</ele>
        <time>2016-03-06T14:21:32Z</time>
      </trkpt>
      <trkpt lat="43.97663" lon="3.7176">
        <ele>195.56145752957</ele>
        <time>2016-03-06T14:21:55Z</time>
      </trkpt>
      <trkpt lat="43.97654" lon="3.71762">
        <ele>198.56681355612</ele>
        <time>2016-03-06T14:21:57Z</time>
      </trkpt>
      <trkpt lat="43.97607" lon="3.71773">
        <ele>201.18700443198</ele>
        <time>2016-03-06T14:22:49Z</time>
      </trkpt>
      <trkpt lat="43.97585" lon="3.71783">
        <ele>203.44762759722</ele>
        <time>2016-03-06T14:22:56Z</time>
      </trkpt>
      <trkpt lat="43.9752" lon="3.71848">
        <ele>205.71986918</ele>
        <time>2016-03-06T14:24:40Z</time>
      </trkpt>
      <trkpt lat="43.97512" lon="3.71852">
        <ele>205.71986918</ele>
        <time>2016-03-06T14:24:42Z</time>
      </trkpt>
      <trkpt lat="43.97509" lon="3.71851">
        <ele>207.94470121658</ele>
        <time>2016-03-06T14:24:45Z</time>
      </trkpt>
      <trkpt lat="43.9747" lon="3.71873">
        <ele>210.67342959485</ele>
        <time>2016-03-06T14:25:51Z</time>
      </trkpt>
      <trkpt lat="43.97465" lon="3.71877">
        <ele>210.67342959485</ele>
        <time>2016-03-06T14:25:51Z</time>
      </trkpt>
      <trkpt lat="43.97443" lon="3.71876">
        <ele>213.50814473067</ele>
        <time>2016-03-06T14:26:22Z</time>
      </trkpt>
      <trkpt lat="43.9744" lon="3.71881">
        <ele>213.50814473067</ele>
        <time>2016-03-06T14:26:23Z</time>
      </trkpt>
      <trkpt lat="43.97421" lon="3.719">
        <ele>216.41192146264</ele>
        <time>2016-03-06T14:26:50Z</time>
      </trkpt>
      <trkpt lat="43.9741" lon="3.71918">
        <ele>219.17801390889</ele>
        <time>2016-03-06T14:27:04Z</time>
      </trkpt>
      <trkpt lat="43.97385" lon="3.71965">
        <ele>222.78314297025</ele>
        <time>2016-03-06T14:29:06Z</time>
      </trkpt>
      <trkpt lat="43.97374" lon="3.71975">
        <ele>226.48765012606</ele>
        <time>2016-03-06T14:29:31Z</time>
      </trkpt>
      <trkpt lat="43.97343" lon="3.71986">
        <ele>230.60089004693</ele>
        <time>2016-03-06T14:30:26Z</time>
      </trkpt>
      <trkpt lat="43.97338" lon="3.71988">
        <ele>230.60089004693</ele>
        <time>2016-03-06T14:30:26Z</time>
      </trkpt>
      <trkpt lat="43.97321" lon="3.72012">
        <ele>235.32246975441</ele>
        <time>2016-03-06T14:31:39Z</time>
      </trkpt>
      <trkpt lat="43.97318" lon="3.72015">
        <ele>235.32246975441</ele>
        <time>2016-03-06T14:31:39Z</time>
      </trkpt>
      <trkpt lat="43.97311" lon="3.72027">
        <ele>239.95714088839</ele>
        <time>2016-03-06T14:32:00Z</time>
      </trkpt>
      <trkpt lat="43.97311" lon="3.72027">
        <ele>239.95714088839</ele>
        <time>2016-03-06T14:32:00Z</time>
      </trkpt>
      <trkpt lat="43.97317" lon="3.72051">
        <ele>244.74064395296</ele>
        <time>2016-03-06T14:32:41Z</time>
      </trkpt>
      <trkpt lat="43.97318" lon="3.72052">
        <ele>244.74064395296</ele>
        <time>2016-03-06T14:32:47Z</time>
      </trkpt>
      <trkpt lat="43.97309" lon="3.72084">
        <ele>250.17980436004</ele>
        <time>2016-03-06T14:34:04Z</time>
      </trkpt>
      <trkpt lat="43.97308" lon="3.72085">
        <ele>250.17980436004</ele>
        <time>2016-03-06T14:34:05Z</time>
      </trkpt>
      <trkpt lat="43.97311" lon="3.7211">
        <ele>255.34509859722</ele>
        <time>2016-03-06T14:34:46Z</time>
      </trkpt>
      <trkpt lat="43.97291" lon="3.72155">
        <ele>260.58718897177</ele>
        <time>2016-03-06T14:35:52Z</time>
      </trkpt>
      <trkpt lat="43.97289" lon="3.72161">
        <ele>260.58718897177</ele>
        <time>2016-03-06T14:35:58Z</time>
      </trkpt>
      <trkpt lat="43.97288" lon="3.72164">
        <ele>260.58718897177</ele>
        <time>2016-03-06T14:36:38Z</time>
      </trkpt>
      <trkpt lat="43.97288" lon="3.72172">
        <ele>266.30342156707</ele>
        <time>2016-03-06T14:36:55Z</time>
      </trkpt>
      <trkpt lat="43.97288" lon="3.72173">
        <ele>266.30342156707</ele>
        <time>2016-03-06T14:37:22Z</time>
      </trkpt>
      <trkpt lat="43.97284" lon="3.72182">
        <ele>266.30342156707</ele>
        <time>2016-03-06T14:37:40Z</time>
      </trkpt>
      <trkpt lat="43.97287" lon="3.72206">
        <ele>272.12626063126</ele>
        <time>2016-03-06T14:38:14Z</time>
      </trkpt>
      <trkpt lat="43.97273" lon="3.72273">
        <ele>279.5601000827</ele>
        <time>2016-03-06T14:40:06Z</time>
      </trkpt>
      <trkpt lat="43.97271" lon="3.72274">
        <ele>279.5601000827</ele>
        <time>2016-03-06T14:40:06Z</time>
      </trkpt>
      <trkpt lat="43.97259" lon="3.72281">
        <ele>286.66594500539</ele>
        <time>2016-03-06T14:40:55Z</time>
      </trkpt>
      <trkpt lat="43.97221" lon="3.72252">
        <ele>295.0065659993</ele>
        <time>2016-03-06T14:42:42Z</time>
      </trkpt>
      <trkpt lat="43.9722" lon="3.72274">
        <ele>304.02395244739</ele>
        <time>2016-03-06T14:44:16Z</time>
      </trkpt>
      <trkpt lat="43.97221" lon="3.7228">
        <ele>304.02395244739</ele>
        <time>2016-03-06T14:44:41Z</time>
      </trkpt>
      <trkpt lat="43.97217" lon="3.72292">
        <ele>313.08453834272</ele>
        <time>2016-03-06T14:44:55Z</time>
      </trkpt>
      <trkpt lat="43.97215" lon="3.72294">
        <ele>313.08453834272</ele>
        <time>2016-03-06T14:45:12Z</time>
      </trkpt>
      <trkpt lat="43.97201" lon="3.7231">
        <ele>323.10058997635</ele>
        <time>2016-03-06T14:46:39Z</time>
      </trkpt>
      <trkpt lat="43.97192" lon="3.72334">
        <ele>333.0851390335</ele>
        <time>2016-03-06T14:47:40Z</time>
      </trkpt>
      <trkpt lat="43.97196" lon="3.72378">
        <ele>345.32376758149</ele>
        <time>2016-03-06T14:50:44Z</time>
      </trkpt>
      <trkpt lat="43.9718" lon="3.72402">
        <ele>357.43228116274</ele>
        <time>2016-03-06T14:51:31Z</time>
      </trkpt>
      <trkpt lat="43.97179" lon="3.72403">
        <ele>357.43228116274</ele>
        <time>2016-03-06T14:51:32Z</time>
      </trkpt>
      <trkpt lat="43.9719" lon="3.72433">
        <ele>369.82555128592</ele>
        <time>2016-03-06T14:54:00Z</time>
      </trkpt>
      <trkpt lat="43.97191" lon="3.72433">
        <ele>369.82555128592</ele>
        <time>2016-03-06T14:54:00Z</time>
      </trkpt>
      <trkpt lat="43.97193" lon="3.72457">
        <ele>385.28018517512</ele>
        <time>2016-03-06T14:56:57Z</time>
      </trkpt>
      <trkpt lat="43.97192" lon="3.72457">
        <ele>385.28018517512</ele>
        <time>2016-03-06T14:56:57Z</time>
      </trkpt>
      <trkpt lat="43.97187" lon="3.72466">
        <ele>385.28018517512</ele>
        <time>2016-03-06T14:57:19Z</time>
      </trkpt>
      <trkpt lat="43.97186" lon="3.72466">
        <ele>399.50133783196</ele>
        <time>2016-03-06T14:57:20Z</time>
      </trkpt>
      <trkpt lat="43.97184" lon="3.72467">
        <ele>399.50133783196</ele>
        <time>2016-03-06T14:57:35Z</time>
      </trkpt>
      <trkpt lat="43.97172" lon="3.72474">
        <ele>413.75959366743</ele>
        <time>2016-03-06T14:58:48Z</time>
      </trkpt>
      <trkpt lat="43.97169" lon="3.72474">
        <ele>413.75959366743</ele>
        <time>2016-03-06T14:58:50Z</time>
      </trkpt>
      <trkpt lat="43.97177" lon="3.72511">
        <ele>429.2761875511</ele>
        <time>2016-03-06T15:01:48Z</time>
      </trkpt>
      <trkpt lat="43.9718" lon="3.72523">
        <ele>429.2761875511</ele>
        <time>2016-03-06T15:02:06Z</time>
      </trkpt>
      <trkpt lat="43.97174" lon="3.72529">
        <ele>444.05278732365</ele>
        <time>2016-03-06T15:02:10Z</time>
      </trkpt>
      <trkpt lat="43.97178" lon="3.72537">
        <ele>444.05278732365</ele>
        <time>2016-03-06T15:02:22Z</time>
      </trkpt>
      <trkpt lat="43.97178" lon="3.72538">
        <ele>444.05278732365</ele>
        <time>2016-03-06T15:02:25Z</time>
      </trkpt>
      <trkpt lat="43.9718" lon="3.72553">
        <ele>457.75400901749</ele>
        <time>2016-03-06T15:03:37Z</time>
      </trkpt>
      <trkpt lat="43.97193" lon="3.7259">
        <ele>470.40450243337</ele>
        <time>2016-03-06T15:04:31Z</time>
      </trkpt>
      <trkpt lat="43.97173" lon="3.72601">
        <ele>483.02535357945</ele>
        <time>2016-03-06T15:06:54Z</time>
      </trkpt>
      <trkpt lat="43.97168" lon="3.72612">
        <ele>495.38194281155</ele>
        <time>2016-03-06T15:07:38Z</time>
      </trkpt>
      <trkpt lat="43.97165" lon="3.72614">
        <ele>495.38194281155</ele>
        <time>2016-03-06T15:08:27Z</time>
      </trkpt>
      <trkpt lat="43.97172" lon="3.72652">
        <ele>510.81810131922</ele>
        <time>2016-03-06T15:09:56Z</time>
      </trkpt>
      <trkpt lat="43.97172" lon="3.72653">
        <ele>510.81810131922</ele>
        <time>2016-03-06T15:09:57Z</time>
      </trkpt>
      <trkpt lat="43.97174" lon="3.72657">
        <ele>510.81810131922</ele>
        <time>2016-03-06T15:10:22Z</time>
      </trkpt>
      <trkpt lat="43.97179" lon="3.72662">
        <ele>525.26198418644</ele>
        <time>2016-03-06T15:10:25Z</time>
      </trkpt>
      <trkpt lat="43.9718" lon="3.72664">
        <ele>525.26198418644</ele>
        <time>2016-03-06T15:10:52Z</time>
      </trkpt>
      <trkpt lat="43.97188" lon="3.7267">
        <ele>538.40323236908</ele>
        <time>2016-03-06T15:10:52Z</time>
      </trkpt>
      <trkpt lat="43.97197" lon="3.72678">
        <ele>550.16060658724</ele>
        <time>2016-03-06T15:11:16Z</time>
      </trkpt>
      <trkpt lat="43.97198" lon="3.72678">
        <ele>550.16060658724</ele>
        <time>2016-03-06T15:11:16Z</time>
      </trkpt>
      <trkpt lat="43.97218" lon="3.72697">
        <ele>561.27063768203</ele>
        <time>2016-03-06T15:12:07Z</time>
      </trkpt>
      <trkpt lat="43.97235" lon="3.72713">
        <ele>571.53936260653</ele>
        <time>2016-03-06T15:12:45Z</time>
      </trkpt>
      <trkpt lat="43.97241" lon="3.72723">
        <ele>581.23701179118</ele>
        <time>2016-03-06T15:13:30Z</time>
      </trkpt>
      <trkpt lat="43.97241" lon="3.72724">
        <ele>581.23701179118</ele>
        <time>2016-03-06T15:13:35Z</time>
      </trkpt>
      <trkpt lat="43.97238" lon="3.72737">
        <ele>590.1263889758</ele>
        <time>2016-03-06T15:14:05Z</time>
      </trkpt>
      <trkpt lat="43.97238" lon="3.72737">
        <ele>590.1263889758</ele>
        <time>2016-03-06T15:14:07Z</time>
      </trkpt>
      <trkpt lat="43.97235" lon="3.72749">
        <ele>597.88986577089</ele>
        <time>2016-03-06T15:14:20Z</time>
      </trkpt>
      <trkpt lat="43.97239" lon="3.72773">
        <ele>604.59728462293</ele>
        <time>2016-03-06T15:14:48Z</time>
      </trkpt>
      <trkpt lat="43.97292" lon="3.72834">
        <ele>612.59392370209</ele>
        <time>2016-03-06T15:17:21Z</time>
      </trkpt>
      <trkpt lat="43.97302" lon="3.72844">
        <ele>619.38054927549</ele>
        <time>2016-03-06T15:18:03Z</time>
      </trkpt>
      <trkpt lat="43.97312" lon="3.72862">
        <ele>625.65736809964</ele>
        <time>2016-03-06T15:18:53Z</time>
      </trkpt>
      <trkpt lat="43.97327" lon="3.72851">
        <ele>633.51616711861</ele>
        <time>2016-03-06T15:23:33Z</time>
      </trkpt>
      <trkpt lat="43.97332" lon="3.72844">
        <ele>633.51616711861</ele>
        <time>2016-03-06T15:23:33Z</time>
      </trkpt>
      <trkpt lat="43.97337" lon="3.72845">
        <ele>640.53889828323</ele>
        <time>2016-03-06T15:24:00Z</time>
      </trkpt>
      <trkpt lat="43.97343" lon="3.72851">
        <ele>640.53889828323</ele>
        <time>2016-03-06T15:24:20Z</time>
      </trkpt>
      <trkpt lat="43.97343" lon="3.72851">
        <ele>640.53889828323</ele>
        <time>2016-03-06T15:24:21Z</time>
      </trkpt>
      <trkpt lat="43.97345" lon="3.72853">
        <ele>646.92333529061</ele>
        <time>2016-03-06T15:24:29Z</time>
      </trkpt>
      <trkpt lat="43.97355" lon="3.72852">
        <ele>653.12864462043</ele>
        <time>2016-03-06T15:25:57Z</time>
      </trkpt>
      <trkpt lat="43.97364" lon="3.72851">
        <ele>658.55784567549</ele>
        <time>2016-03-06T15:26:25Z</time>
      </trkpt>
      <trkpt lat="43.97376" lon="3.72853">
        <ele>663.32311856346</ele>
        <time>2016-03-06T15:27:44Z</time>
      </trkpt>
      <trkpt lat="43.97388" lon="3.72852">
        <ele>667.31426344751</ele>
        <time>2016-03-06T15:27:45Z</time>
      </trkpt>
      <trkpt lat="43.97389" lon="3.72852">
        <ele>667.31426344751</ele>
        <time>2016-03-06T15:27:58Z</time>
      </trkpt>
      <trkpt lat="43.97398" lon="3.72855">
        <ele>670.86379113507</ele>
        <time>2016-03-06T15:28:19Z</time>
      </trkpt>
      <trkpt lat="43.97403" lon="3.7286">
        <ele>670.86379113507</ele>
        <time>2016-03-06T15:28:42Z</time>
      </trkpt>
      <trkpt lat="43.97403" lon="3.72861">
        <ele>670.86379113507</ele>
        <time>2016-03-06T15:28:47Z</time>
      </trkpt>
      <trkpt lat="43.97427" lon="3.7286">
        <ele>674.92958124187</ele>
        <time>2016-03-06T15:30:06Z</time>
      </trkpt>
      <trkpt lat="43.97437" lon="3.72874">
        <ele>678.79806808819</ele>
        <time>2016-03-06T15:30:52Z</time>
      </trkpt>
      <trkpt lat="43.97444" lon="3.72869">
        <ele>678.79806808819</ele>
        <time>2016-03-06T15:31:21Z</time>
      </trkpt>
      <trkpt lat="43.97448" lon="3.72866">
        <ele>682.03918597045</ele>
        <time>2016-03-06T15:31:21Z</time>
      </trkpt>
      <trkpt lat="43.97462" lon="3.72871">
        <ele>685.62518027499</ele>
        <time>2016-03-06T15:32:24Z</time>
      </trkpt>
      <trkpt lat="43.97461" lon="3.72877">
        <ele>685.62518027499</ele>
        <time>2016-03-06T15:32:24Z</time>
      </trkpt>
      <trkpt lat="43.97465" lon="3.72889">
        <ele>688.74084291205</ele>
        <time>2016-03-06T15:32:49Z</time>
      </trkpt>
      <trkpt lat="43.97464" lon="3.72902">
        <ele>691.46782868985</ele>
        <time>2016-03-06T15:33:20Z</time>
      </trkpt>
      <trkpt lat="43.97462" lon="3.72912">
        <ele>691.46782868985</ele>
        <time>2016-03-06T15:33:22Z</time>
      </trkpt>
      <trkpt lat="43.9746" lon="3.7292">
        <ele>693.60884499407</ele>
        <time>2016-03-06T15:33:32Z</time>
      </trkpt>
      <trkpt lat="43.97453" lon="3.72983">
        <ele>696.20741310016</ele>
        <time>2016-03-06T15:34:51Z</time>
      </trkpt>
      <trkpt lat="43.97452" lon="3.72986">
        <ele>696.20741310016</ele>
        <time>2016-03-06T15:34:55Z</time>
      </trkpt>
      <trkpt lat="43.97449" lon="3.73017">
        <ele>698.64358552581</ele>
        <time>2016-03-06T15:35:53Z</time>
      </trkpt>
      <trkpt lat="43.97454" lon="3.73042">
        <ele>701.03480375689</ele>
        <time>2016-03-06T15:36:45Z</time>
      </trkpt>
      <trkpt lat="43.97455" lon="3.73052">
        <ele>701.03480375689</ele>
        <time>2016-03-06T15:37:09Z</time>
      </trkpt>
      <trkpt lat="43.97464" lon="3.73087">
        <ele>703.50404644782</ele>
        <time>2016-03-06T15:37:53Z</time>
      </trkpt>
      <trkpt lat="43.97465" lon="3.73091">
        <ele>703.50404644782</ele>
        <time>2016-03-06T15:37:59Z</time>
      </trkpt>
      <trkpt lat="43.97467" lon="3.73102">
        <ele>705.86200506991</ele>
        <time>2016-03-06T15:38:26Z</time>
      </trkpt>
      <trkpt lat="43.97468" lon="3.73106">
        <ele>705.86200506991</ele>
        <time>2016-03-06T15:38:26Z</time>
      </trkpt>
      <trkpt lat="43.97466" lon="3.73122">
        <ele>708.22138621158</ele>
        <time>2016-03-06T15:38:51Z</time>
      </trkpt>
      <trkpt lat="43.97466" lon="3.73125">
        <ele>708.22138621158</ele>
        <time>2016-03-06T15:39:07Z</time>
      </trkpt>
      <trkpt lat="43.97462" lon="3.73128">
        <ele>708.22138621158</ele>
        <time>2016-03-06T15:39:43Z</time>
      </trkpt>
      <trkpt lat="43.97461" lon="3.73128">
        <ele>708.22138621158</ele>
        <time>2016-03-06T15:39:43Z</time>
      </trkpt>
      <trkpt lat="43.97465" lon="3.73127">
        <ele>710.91674374691</ele>
        <time>2016-03-06T15:52:55Z</time>
      </trkpt>
      <trkpt lat="43.97465" lon="3.73126">
        <ele>710.91674374691</ele>
        <time>2016-03-06T15:53:00Z</time>
      </trkpt>
      <trkpt lat="43.9747" lon="3.73107">
        <ele>713.20463543285</ele>
        <time>2016-03-06T15:53:43Z</time>
      </trkpt>
      <trkpt lat="43.9747" lon="3.73105">
        <ele>713.20463543285</ele>
        <time>2016-03-06T15:53:45Z</time>
      </trkpt>
      <trkpt lat="43.97467" lon="3.73093">
        <ele>714.87245884013</ele>
        <time>2016-03-06T15:54:06Z</time>
      </trkpt>
      <trkpt lat="43.97468" lon="3.73087">
        <ele>714.87245884013</ele>
        <time>2016-03-06T15:54:06Z</time>
      </trkpt>
      <trkpt lat="43.97468" lon="3.73086">
        <ele>714.87245884013</ele>
        <time>2016-03-06T15:54:23Z</time>
      </trkpt>
      <trkpt lat="43.97458" lon="3.73064">
        <ele>715.88299166225</ele>
        <time>2016-03-06T15:54:41Z</time>
      </trkpt>
      <trkpt lat="43.97456" lon="3.73056">
        <ele>715.88299166225</ele>
        <time>2016-03-06T15:54:41Z</time>
      </trkpt>
      <trkpt lat="43.97457" lon="3.73033">
        <ele>716.04455066007</ele>
        <time>2016-03-06T15:55:08Z</time>
      </trkpt>
      <trkpt lat="43.97456" lon="3.73029">
        <ele>716.04455066007</ele>
        <time>2016-03-06T15:55:08Z</time>
      </trkpt>
      <trkpt lat="43.97455" lon="3.73027">
        <ele>716.04455066007</ele>
        <time>2016-03-06T15:55:11Z</time>
      </trkpt>
      <trkpt lat="43.97453" lon="3.7302">
        <ele>715.62812293065</ele>
        <time>2016-03-06T15:55:20Z</time>
      </trkpt>
      <trkpt lat="43.9745" lon="3.72999">
        <ele>714.29499472901</ele>
        <time>2016-03-06T15:55:57Z</time>
      </trkpt>
      <trkpt lat="43.97454" lon="3.72993">
        <ele>714.29499472901</ele>
        <time>2016-03-06T15:55:58Z</time>
      </trkpt>
      <trkpt lat="43.97463" lon="3.72938">
        <ele>711.286573541</ele>
        <time>2016-03-06T15:57:04Z</time>
      </trkpt>
      <trkpt lat="43.97465" lon="3.72931">
        <ele>711.286573541</ele>
        <time>2016-03-06T15:57:07Z</time>
      </trkpt>
      <trkpt lat="43.97469" lon="3.72899">
        <ele>707.61899644771</ele>
        <time>2016-03-06T15:57:51Z</time>
      </trkpt>
      <trkpt lat="43.97473" lon="3.72842">
        <ele>703.06765015576</ele>
        <time>2016-03-06T15:58:49Z</time>
      </trkpt>
      <trkpt lat="43.97475" lon="3.72835">
        <ele>703.06765015576</ele>
        <time>2016-03-06T15:58:50Z</time>
      </trkpt>
      <trkpt lat="43.97485" lon="3.72815">
        <ele>698.23323046419</ele>
        <time>2016-03-06T15:59:19Z</time>
      </trkpt>
      <trkpt lat="43.97485" lon="3.72814">
        <ele>698.23323046419</ele>
        <time>2016-03-06T15:59:20Z</time>
      </trkpt>
      <trkpt lat="43.97487" lon="3.72813">
        <ele>698.23323046419</ele>
        <time>2016-03-06T15:59:47Z</time>
      </trkpt>
      <trkpt lat="43.97481" lon="3.72815">
        <ele>693.48502433849</ele>
        <time>2016-03-06T15:59:47Z</time>
      </trkpt>
      <trkpt lat="43.97479" lon="3.72818">
        <ele>693.48502433849</ele>
        <time>2016-03-06T15:59:50Z</time>
      </trkpt>
      <trkpt lat="43.97469" lon="3.72834">
        <ele>688.89036971495</ele>
        <time>2016-03-06T16:00:16Z</time>
      </trkpt>
      <trkpt lat="43.9746" lon="3.72843">
        <ele>684.45278166713</ele>
        <time>2016-03-06T16:00:41Z</time>
      </trkpt>
      <trkpt lat="43.97454" lon="3.72849">
        <ele>684.45278166713</ele>
        <time>2016-03-06T16:00:41Z</time>
      </trkpt>
      <trkpt lat="43.9745" lon="3.72854">
        <ele>680.21748165431</ele>
        <time>2016-03-06T16:00:51Z</time>
      </trkpt>
      <trkpt lat="43.97412" lon="3.72935">
        <ele>675.67732911545</ele>
        <time>2016-03-06T16:02:25Z</time>
      </trkpt>
      <trkpt lat="43.97409" lon="3.72942">
        <ele>675.67732911545</ele>
        <time>2016-03-06T16:02:25Z</time>
      </trkpt>
      <trkpt lat="43.97389" lon="3.72997">
        <ele>671.1838592454</ele>
        <time>2016-03-06T16:03:16Z</time>
      </trkpt>
      <trkpt lat="43.97387" lon="3.72999">
        <ele>671.1838592454</ele>
        <time>2016-03-06T16:03:20Z</time>
      </trkpt>
      <trkpt lat="43.97337" lon="3.73092">
        <ele>666.32680460041</ele>
        <time>2016-03-06T16:05:11Z</time>
      </trkpt>
      <trkpt lat="43.97331" lon="3.73104">
        <ele>661.73494234532</ele>
        <time>2016-03-06T16:05:11Z</time>
      </trkpt>
      <trkpt lat="43.97329" lon="3.7312">
        <ele>657.35512822418</ele>
        <time>2016-03-06T16:05:28Z</time>
      </trkpt>
      <trkpt lat="43.97327" lon="3.73146">
        <ele>653.06456911649</ele>
        <time>2016-03-06T16:05:53Z</time>
      </trkpt>
      <trkpt lat="43.97326" lon="3.73153">
        <ele>653.06456911649</ele>
        <time>2016-03-06T16:05:53Z</time>
      </trkpt>
      <trkpt lat="43.97308" lon="3.7323">
        <ele>648.31600513276</ele>
        <time>2016-03-06T16:07:00Z</time>
      </trkpt>
      <trkpt lat="43.97307" lon="3.73233">
        <ele>648.31600513276</ele>
        <time>2016-03-06T16:07:05Z</time>
      </trkpt>
      <trkpt lat="43.973" lon="3.73244">
        <ele>643.78447368609</ele>
        <time>2016-03-06T16:07:14Z</time>
      </trkpt>
      <trkpt lat="43.97286" lon="3.73266">
        <ele>639.14278615149</ele>
        <time>2016-03-06T16:08:00Z</time>
      </trkpt>
      <trkpt lat="43.97283" lon="3.73266">
        <ele>639.14278615149</ele>
        <time>2016-03-06T16:08:02Z</time>
      </trkpt>
      <trkpt lat="43.97229" lon="3.73275">
        <ele>633.15048412264</ele>
        <time>2016-03-06T16:09:50Z</time>
      </trkpt>
      <trkpt lat="43.9722" lon="3.73251">
        <ele>627.21190232971</ele>
        <time>2016-03-06T16:10:24Z</time>
      </trkpt>
      <trkpt lat="43.97213" lon="3.73199">
        <ele>621.66163660777</ele>
        <time>2016-03-06T16:11:15Z</time>
      </trkpt>
      <trkpt lat="43.97211" lon="3.73191">
        <ele>621.66163660777</ele>
        <time>2016-03-06T16:11:21Z</time>
      </trkpt>
      <trkpt lat="43.9721" lon="3.73173">
        <ele>615.39544681997</ele>
        <time>2016-03-06T16:11:46Z</time>
      </trkpt>
      <trkpt lat="43.97197" lon="3.73152">
        <ele>609.43772342207</ele>
        <time>2016-03-06T16:12:21Z</time>
      </trkpt>
      <trkpt lat="43.97169" lon="3.73146">
        <ele>603.29476210966</ele>
        <time>2016-03-06T16:13:00Z</time>
      </trkpt>
      <trkpt lat="43.97163" lon="3.73143">
        <ele>603.29476210966</ele>
        <time>2016-03-06T16:13:00Z</time>
      </trkpt>
      <trkpt lat="43.97131" lon="3.73128">
        <ele>597.30139865011</ele>
        <time>2016-03-06T16:13:51Z</time>
      </trkpt>
      <trkpt lat="43.97123" lon="3.73123">
        <ele>597.30139865011</ele>
        <time>2016-03-06T16:13:52Z</time>
      </trkpt>
      <trkpt lat="43.97119" lon="3.73118">
        <ele>591.91071613508</ele>
        <time>2016-03-06T16:14:04Z</time>
      </trkpt>
      <trkpt lat="43.97103" lon="3.73095">
        <ele>586.61767888939</ele>
        <time>2016-03-06T16:14:28Z</time>
      </trkpt>
      <trkpt lat="43.97087" lon="3.73076">
        <ele>581.60176111059</ele>
        <time>2016-03-06T16:14:46Z</time>
      </trkpt>
      <trkpt lat="43.9706" lon="3.73046">
        <ele>576.55211297671</ele>
        <time>2016-03-06T16:15:15Z</time>
      </trkpt>
      <trkpt lat="43.97049" lon="3.73032">
        <ele>571.85736430485</ele>
        <time>2016-03-06T16:15:36Z</time>
      </trkpt>
      <trkpt lat="43.97045" lon="3.73024">
        <ele>571.85736430485</ele>
        <time>2016-03-06T16:15:36Z</time>
      </trkpt>
      <trkpt lat="43.96966" lon="3.72949">
        <ele>566.01681747636</ele>
        <time>2016-03-06T16:17:06Z</time>
      </trkpt>
      <trkpt lat="43.96853" lon="3.72885">
        <ele>558.57922312558</ele>
        <time>2016-03-06T16:19:00Z</time>
      </trkpt>
      <trkpt lat="43.96834" lon="3.72876">
        <ele>551.79630641001</ele>
        <time>2016-03-06T16:19:13Z</time>
      </trkpt>
      <trkpt lat="43.96832" lon="3.72874">
        <ele>551.79630641001</ele>
        <time>2016-03-06T16:19:15Z</time>
      </trkpt>
      <trkpt lat="43.9665" lon="3.72681">
        <ele>542.90971069177</ele>
        <time>2016-03-06T16:23:15Z</time>
      </trkpt>
      <trkpt lat="43.96669" lon="3.72633">
        <ele>534.94601833147</ele>
        <time>2016-03-06T16:24:07Z</time>
      </trkpt>
      <trkpt lat="43.96668" lon="3.72622">
        <ele>534.94601833147</ele>
        <time>2016-03-06T16:24:40Z</time>
      </trkpt>
      <trkpt lat="43.96653" lon="3.72553">
        <ele>526.84402569983</ele>
        <time>2016-03-06T16:25:04Z</time>
      </trkpt>
      <trkpt lat="43.96564" lon="3.72444">
        <ele>519.40717059807</ele>
        <time>2016-03-06T16:26:56Z</time>
      </trkpt>
      <trkpt lat="43.96563" lon="3.72443">
        <ele>519.40717059807</ele>
        <time>2016-03-06T16:27:00Z</time>
      </trkpt>
      <trkpt lat="43.96561" lon="3.72437">
        <ele>519.40717059807</ele>
        <time>2016-03-06T16:27:26Z</time>
      </trkpt>
      <trkpt lat="43.96558" lon="3.72433">
        <ele>513.60791267638</ele>
        <time>2016-03-06T16:27:30Z</time>
      </trkpt>
      <trkpt lat="43.96539" lon="3.72404">
        <ele>508.84327309404</ele>
        <time>2016-03-06T16:27:55Z</time>
      </trkpt>
      <trkpt lat="43.96475" lon="3.72318">
        <ele>505.18512846707</ele>
        <time>2016-03-06T16:29:15Z</time>
      </trkpt>
      <trkpt lat="43.96465" lon="3.72302">
        <ele>502.23522514237</ele>
        <time>2016-03-06T16:29:32Z</time>
      </trkpt>
      <trkpt lat="43.96464" lon="3.72301">
        <ele>502.23522514237</ele>
        <time>2016-03-06T16:29:33Z</time>
      </trkpt>
      <trkpt lat="43.9645" lon="3.72281">
        <ele>500.22729805138</ele>
        <time>2016-03-06T16:29:53Z</time>
      </trkpt>
      <trkpt lat="43.9637" lon="3.7227">
        <ele>499.56211763509</ele>
        <time>2016-03-06T16:31:26Z</time>
      </trkpt>
      <trkpt lat="43.96241" lon="3.72156">
        <ele>498.93511607081</ele>
        <time>2016-03-06T16:35:48Z</time>
      </trkpt>
      <trkpt lat="43.96238" lon="3.72154">
        <ele>498.93511607081</ele>
        <time>2016-03-06T16:35:50Z</time>
      </trkpt>
      <trkpt lat="43.9623" lon="3.72145">
        <ele>498.73670203001</ele>
        <time>2016-03-06T16:36:03Z</time>
      </trkpt>
      <trkpt lat="43.96219" lon="3.72122">
        <ele>498.99562440136</ele>
        <time>2016-03-06T16:36:28Z</time>
      </trkpt>
      <trkpt lat="43.96219" lon="3.72119">
        <ele>498.99562440136</ele>
        <time>2016-03-06T16:36:28Z</time>
      </trkpt>
      <trkpt lat="43.96204" lon="3.72057">
        <ele>499.65050892575</ele>
        <time>2016-03-06T16:37:21Z</time>
      </trkpt>
      <trkpt lat="43.96197" lon="3.72043">
        <ele>500.71523326406</ele>
        <time>2016-03-06T16:37:35Z</time>
      </trkpt>
      <trkpt lat="43.96184" lon="3.72008">
        <ele>501.99960836402</ele>
        <time>2016-03-06T16:38:28Z</time>
      </trkpt>
      <trkpt lat="43.96176" lon="3.72008">
        <ele>501.99960836402</ele>
        <time>2016-03-06T16:38:29Z</time>
      </trkpt>
      <trkpt lat="43.9617" lon="3.71999">
        <ele>503.35553852674</ele>
        <time>2016-03-06T16:38:53Z</time>
      </trkpt>
      <trkpt lat="43.96165" lon="3.71983">
        <ele>504.90497868226</ele>
        <time>2016-03-06T16:38:53Z</time>
      </trkpt>
      <trkpt lat="43.96147" lon="3.71961">
        <ele>506.37130743248</ele>
        <time>2016-03-06T16:39:25Z</time>
      </trkpt>
      <trkpt lat="43.96134" lon="3.71933">
        <ele>507.80116554276</ele>
        <time>2016-03-06T16:39:55Z</time>
      </trkpt>
      <trkpt lat="43.96128" lon="3.7192">
        <ele>509.23799096531</ele>
        <time>2016-03-06T16:40:19Z</time>
      </trkpt>
      <trkpt lat="43.96123" lon="3.71908">
        <ele>510.70776332316</ele>
        <time>2016-03-06T16:40:19Z</time>
      </trkpt>
      <trkpt lat="43.96118" lon="3.71897">
        <ele>512.3067187755</ele>
        <time>2016-03-06T16:40:57Z</time>
      </trkpt>
      <trkpt lat="43.96135" lon="3.71807">
        <ele>512.85571858989</ele>
        <time>2016-03-06T16:42:31Z</time>
      </trkpt>
      <trkpt lat="43.96128" lon="3.71781">
        <ele>513.68652068625</ele>
        <time>2016-03-06T16:43:51Z</time>
      </trkpt>
      <trkpt lat="43.96121" lon="3.71775">
        <ele>513.68652068625</ele>
        <time>2016-03-06T16:44:10Z</time>
      </trkpt>
      <trkpt lat="43.96109" lon="3.71721">
        <ele>514.70672969532</ele>
        <time>2016-03-06T16:45:00Z</time>
      </trkpt>
      <trkpt lat="43.961" lon="3.71697">
        <ele>515.70081771383</ele>
        <time>2016-03-06T16:45:36Z</time>
      </trkpt>
      <trkpt lat="43.96098" lon="3.71693">
        <ele>515.70081771383</ele>
        <time>2016-03-06T16:45:43Z</time>
      </trkpt>
      <trkpt lat="43.96089" lon="3.71668">
        <ele>517.21887152191</ele>
        <time>2016-03-06T16:46:35Z</time>
      </trkpt>
      <trkpt lat="43.96088" lon="3.7166">
        <ele>517.21887152191</ele>
        <time>2016-03-06T16:46:50Z</time>
      </trkpt>
      <trkpt lat="43.96084" lon="3.71648">
        <ele>518.74625867134</ele>
        <time>2016-03-06T16:47:10Z</time>
      </trkpt>
      <trkpt lat="43.96073" lon="3.7162">
        <ele>520.10912432445</ele>
        <time>2016-03-06T16:47:33Z</time>
      </trkpt>
      <trkpt lat="43.96079" lon="3.71596">
        <ele>521.23369366618</ele>
        <time>2016-03-06T16:47:43Z</time>
      </trkpt>
      <trkpt lat="43.9608" lon="3.71594">
        <ele>521.23369366618</ele>
        <time>2016-03-06T16:47:43Z</time>
      </trkpt>
      <trkpt lat="43.96087" lon="3.71572">
        <ele>521.85091639444</ele>
        <time>2016-03-06T16:48:05Z</time>
      </trkpt>
      <trkpt lat="43.96101" lon="3.71526">
        <ele>521.51157276393</ele>
        <time>2016-03-06T16:48:54Z</time>
      </trkpt>
      <trkpt lat="43.96106" lon="3.71524">
        <ele>521.51157276393</ele>
        <time>2016-03-06T16:48:54Z</time>
      </trkpt>
      <trkpt lat="43.96138" lon="3.71538">
        <ele>519.49988992869</ele>
        <time>2016-03-06T16:49:56Z</time>
      </trkpt>
      <trkpt lat="43.96142" lon="3.71539">
        <ele>519.49988992869</ele>
        <time>2016-03-06T16:49:56Z</time>
      </trkpt>
      <trkpt lat="43.96144" lon="3.7154">
        <ele>519.49988992869</ele>
        <time>2016-03-06T16:50:11Z</time>
      </trkpt>
      <trkpt lat="43.96159" lon="3.71525">
        <ele>516.65651102965</ele>
        <time>2016-03-06T16:51:52Z</time>
      </trkpt>
      <trkpt lat="43.96159" lon="3.71522">
        <ele>516.65651102965</ele>
        <time>2016-03-06T16:52:00Z</time>
      </trkpt>
      <trkpt lat="43.96157" lon="3.71518">
        <ele>516.65651102965</ele>
        <time>2016-03-06T16:52:00Z</time>
      </trkpt>
      <trkpt lat="43.96152" lon="3.71508">
        <ele>513.8494972695</ele>
        <time>2016-03-06T16:52:35Z</time>
      </trkpt>
      <trkpt lat="43.96136" lon="3.71454">
        <ele>508.13649357538</ele>
        <time>2016-03-06T16:54:41Z</time>
      </trkpt>
      <trkpt lat="43.96141" lon="3.71439">
        <ele>503.11181965074</ele>
        <time>2016-03-06T16:54:41Z</time>
      </trkpt>
      <trkpt lat="43.9614" lon="3.71435">
        <ele>503.11181965074</ele>
        <time>2016-03-06T16:55:06Z</time>
      </trkpt>
      <trkpt lat="43.96137" lon="3.71421">
        <ele>499.10658899692</ele>
        <time>2016-03-06T16:55:06Z</time>
      </trkpt>
      <trkpt lat="43.96115" lon="3.7137">
        <ele>495.54589093706</ele>
        <time>2016-03-06T16:55:50Z</time>
      </trkpt>
      <trkpt lat="43.9606" lon="3.71349">
        <ele>492.73184931217</ele>
        <time>2016-03-06T16:56:55Z</time>
      </trkpt>
      <trkpt lat="43.96049" lon="3.7135">
        <ele>490.22192222253</ele>
        <time>2016-03-06T16:56:55Z</time>
      </trkpt>
      <trkpt lat="43.96038" lon="3.71354">
        <ele>487.99448262799</ele>
        <time>2016-03-06T16:57:14Z</time>
      </trkpt>
      <trkpt lat="43.96025" lon="3.71356">
        <ele>486.0432548638</ele>
        <time>2016-03-06T16:57:22Z</time>
      </trkpt>
      <trkpt lat="43.95964" lon="3.71356">
        <ele>484.14561508365</ele>
        <time>2016-03-06T16:58:42Z</time>
      </trkpt>
      <trkpt lat="43.95951" lon="3.71367">
        <ele>482.51318869614</ele>
        <time>2016-03-06T16:58:48Z</time>
      </trkpt>
      <trkpt lat="43.95902" lon="3.71413">
        <ele>481.18290554116</ele>
        <time>2016-03-06T16:59:50Z</time>
      </trkpt>
      <trkpt lat="43.95858" lon="3.7144">
        <ele>479.00653337835</ele>
        <time>2016-03-06T17:01:20Z</time>
      </trkpt>
      <trkpt lat="43.95848" lon="3.71448">
        <ele>476.76728831382</ele>
        <time>2016-03-06T17:01:38Z</time>
      </trkpt>
      <trkpt lat="43.95846" lon="3.7145">
        <ele>476.76728831382</ele>
        <time>2016-03-06T17:01:38Z</time>
      </trkpt>
      <trkpt lat="43.95835" lon="3.71458">
        <ele>474.2688125512</ele>
        <time>2016-03-06T17:02:05Z</time>
      </trkpt>
      <trkpt lat="43.95813" lon="3.71469">
        <ele>470.95529607162</ele>
        <time>2016-03-06T17:02:56Z</time>
      </trkpt>
      <trkpt lat="43.95785" lon="3.71506">
        <ele>466.6167488194</ele>
        <time>2016-03-06T17:03:50Z</time>
      </trkpt>
      <trkpt lat="43.95783" lon="3.71514">
        <ele>466.6167488194</ele>
        <time>2016-03-06T17:04:10Z</time>
      </trkpt>
      <trkpt lat="43.95738" lon="3.71503">
        <ele>459.46189635315</ele>
        <time>2016-03-06T17:06:00Z</time>
      </trkpt>
      <trkpt lat="43.95738" lon="3.71501">
        <ele>459.46189635315</ele>
        <time>2016-03-06T17:06:25Z</time>
      </trkpt>
      <trkpt lat="43.95722" lon="3.71491">
        <ele>451.58585953093</ele>
        <time>2016-03-06T17:07:30Z</time>
      </trkpt>
      <trkpt lat="43.95718" lon="3.71486">
        <ele>451.58585953093</ele>
        <time>2016-03-06T17:07:31Z</time>
      </trkpt>
      <trkpt lat="43.95714" lon="3.71481">
        <ele>444.21130191691</ele>
        <time>2016-03-06T17:07:53Z</time>
      </trkpt>
      <trkpt lat="43.95715" lon="3.71475">
        <ele>444.21130191691</ele>
        <time>2016-03-06T17:07:55Z</time>
      </trkpt>
      <trkpt lat="43.95711" lon="3.71467">
        <ele>437.35994915953</ele>
        <time>2016-03-06T17:08:05Z</time>
      </trkpt>
      <trkpt lat="43.95711" lon="3.71465">
        <ele>437.35994915953</ele>
        <time>2016-03-06T17:08:10Z</time>
      </trkpt>
      <trkpt lat="43.95709" lon="3.71459">
        <ele>437.35994915953</ele>
        <time>2016-03-06T17:08:35Z</time>
      </trkpt>
      <trkpt lat="43.95705" lon="3.71437">
        <ele>430.35862937522</ele>
        <time>2016-03-06T17:08:53Z</time>
      </trkpt>
      <trkpt lat="43.95703" lon="3.71431">
        <ele>430.35862937522</ele>
        <time>2016-03-06T17:09:16Z</time>
      </trkpt>
      <trkpt lat="43.957" lon="3.71437">
        <ele>423.37651650489</ele>
        <time>2016-03-06T17:09:16Z</time>
      </trkpt>
      <trkpt lat="43.95699" lon="3.71439">
        <ele>423.37651650489</ele>
        <time>2016-03-06T17:09:50Z</time>
      </trkpt>
      <trkpt lat="43.95684" lon="3.7143">
        <ele>415.35959828742</ele>
        <time>2016-03-06T17:10:57Z</time>
      </trkpt>
      <trkpt lat="43.95685" lon="3.71431">
        <ele>415.35959828742</ele>
        <time>2016-03-06T17:10:57Z</time>
      </trkpt>
      <trkpt lat="43.95683" lon="3.71429">
        <ele>415.35959828742</ele>
        <time>2016-03-06T17:11:13Z</time>
      </trkpt>
      <trkpt lat="43.95672" lon="3.71425">
        <ele>407.48124620832</ele>
        <time>2016-03-06T17:11:34Z</time>
      </trkpt>
      <trkpt lat="43.95669" lon="3.71407">
        <ele>399.92011469519</ele>
        <time>2016-03-06T17:11:35Z</time>
      </trkpt>
      <trkpt lat="43.95629" lon="3.71371">
        <ele>390.10246708621</ele>
        <time>2016-03-06T17:12:49Z</time>
      </trkpt>
      <trkpt lat="43.95619" lon="3.71362">
        <ele>380.50621101</ele>
        <time>2016-03-06T17:13:01Z</time>
      </trkpt>
      <trkpt lat="43.95619" lon="3.71361">
        <ele>380.50621101</ele>
        <time>2016-03-06T17:13:02Z</time>
      </trkpt>
      <trkpt lat="43.95618" lon="3.71356">
        <ele>380.50621101</ele>
        <time>2016-03-06T17:13:25Z</time>
      </trkpt>
      <trkpt lat="43.95569" lon="3.71324">
        <ele>369.37675116234</ele>
        <time>2016-03-06T17:14:07Z</time>
      </trkpt>
      <trkpt lat="43.95561" lon="3.7132">
        <ele>369.37675116234</ele>
        <time>2016-03-06T17:14:10Z</time>
      </trkpt>
      <trkpt lat="43.95516" lon="3.71289">
        <ele>356.93693603197</ele>
        <time>2016-03-06T17:15:27Z</time>
      </trkpt>
      <trkpt lat="43.95514" lon="3.71286">
        <ele>356.93693603197</ele>
        <time>2016-03-06T17:15:33Z</time>
      </trkpt>
      <trkpt lat="43.95488" lon="3.71271">
        <ele>344.96731775539</ele>
        <time>2016-03-06T17:16:00Z</time>
      </trkpt>
      <trkpt lat="43.95466" lon="3.71239">
        <ele>332.52187332212</ele>
        <time>2016-03-06T17:17:13Z</time>
      </trkpt>
      <trkpt lat="43.95416" lon="3.71202">
        <ele>318.79696260145</ele>
        <time>2016-03-06T17:18:39Z</time>
      </trkpt>
      <trkpt lat="43.95398" lon="3.71187">
        <ele>304.79476885678</ele>
        <time>2016-03-06T17:19:20Z</time>
      </trkpt>
      <trkpt lat="43.95397" lon="3.71182">
        <ele>304.79476885678</ele>
        <time>2016-03-06T17:19:27Z</time>
      </trkpt>
      <trkpt lat="43.95383" lon="3.7118">
        <ele>291.48727964273</ele>
        <time>2016-03-06T17:19:59Z</time>
      </trkpt>
      <trkpt lat="43.95382" lon="3.7118">
        <ele>291.48727964273</ele>
        <time>2016-03-06T17:20:00Z</time>
      </trkpt>
      <trkpt lat="43.95361" lon="3.71175">
        <ele>278.50432809071</ele>
        <time>2016-03-06T17:21:09Z</time>
      </trkpt>
      <trkpt lat="43.95333" lon="3.71172">
        <ele>265.70312528563</ele>
        <time>2016-03-06T17:22:07Z</time>
      </trkpt>
      <trkpt lat="43.95288" lon="3.71148">
        <ele>252.5322517921</ele>
        <time>2016-03-06T17:23:09Z</time>
      </trkpt>
      <trkpt lat="43.95282" lon="3.71142">
        <ele>252.5322517921</ele>
        <time>2016-03-06T17:23:09Z</time>
      </trkpt>
      <trkpt lat="43.95279" lon="3.71138">
        <ele>240.45544728276</ele>
        <time>2016-03-06T17:23:22Z</time>
      </trkpt>
      <trkpt lat="43.95261" lon="3.71099">
        <ele>228.66346674891</ele>
        <time>2016-03-06T17:23:55Z</time>
      </trkpt>
      <trkpt lat="43.95257" lon="3.71096">
        <ele>228.66346674891</ele>
        <time>2016-03-06T17:24:00Z</time>
      </trkpt>
      <trkpt lat="43.95232" lon="3.71073">
        <ele>217.08230390067</ele>
        <time>2016-03-06T17:24:25Z</time>
      </trkpt>
      <trkpt lat="43.95197" lon="3.71045">
        <ele>204.47476042414</ele>
        <time>2016-03-06T17:25:25Z</time>
      </trkpt>
      <trkpt lat="43.95194" lon="3.71041">
        <ele>204.47476042414</ele>
        <time>2016-03-06T17:25:25Z</time>
      </trkpt>
      <trkpt lat="43.95161" lon="3.70976">
        <ele>191.38276286528</ele>
        <time>2016-03-06T17:26:35Z</time>
      </trkpt>
      <trkpt lat="43.95154" lon="3.70966">
        <ele>179.53399346582</ele>
        <time>2016-03-06T17:26:46Z</time>
      </trkpt>
      <trkpt lat="43.95074" lon="3.709">
        <ele>166.72045862291</ele>
        <time>2016-03-06T17:28:00Z</time>
      </trkpt>
      <trkpt lat="43.95071" lon="3.70894">
        <ele>166.72045862291</ele>
        <time>2016-03-06T17:28:20Z</time>
      </trkpt>
      <trkpt lat="43.95079" lon="3.70843">
        <ele>154.89021211887</ele>
        <time>2016-03-06T17:30:07Z</time>
      </trkpt>
      <trkpt lat="43.95087" lon="3.70846">
        <ele>154.89021211887</ele>
        <time>2016-03-06T17:30:08Z</time>
      </trkpt>
      <trkpt lat="43.95114" lon="3.70861">
        <ele>144.76388515681</ele>
        <time>2016-03-06T17:30:35Z</time>
      </trkpt>
      <trkpt lat="43.95131" lon="3.7087">
        <ele>136.1390142472</ele>
        <time>2016-03-06T17:31:00Z</time>
      </trkpt>
      <trkpt lat="43.95153" lon="3.70894">
        <ele>128.76546788301</ele>
        <time>2016-03-06T17:31:16Z</time>
      </trkpt>
      <trkpt lat="43.9516" lon="3.70899">
        <ele>128.76546788301</ele>
        <time>2016-03-06T17:31:16Z</time>
      </trkpt>
      <trkpt lat="43.95189" lon="3.70932">
        <ele>122.47938759163</ele>
        <time>2016-03-06T17:31:55Z</time>
      </trkpt>
      <trkpt lat="43.95193" lon="3.70931">
        <ele>122.47938759163</ele>
        <time>2016-03-06T17:32:12Z</time>
      </trkpt>
      <trkpt lat="43.95193" lon="3.70932">
        <ele>122.47938759163</ele>
        <time>2016-03-06T17:32:15Z</time>
      </trkpt>
      <trkpt lat="43.95195" lon="3.70929">
        <ele>122.47938759163</ele>
        <time>2016-03-06T17:32:30Z</time>
      </trkpt>
    </trkseg>
  </trk>
</gpx>